• Join FlightAware (Why Join?)
  • Login
  • US Flag 
08:43PM EDT


 

Airport Tracker/Info


-or-


 

Live Flight TrackerFlight Track Log ✈ AFL150 ✈ 30-Sep-2013 ✈ UUEE / SVO - MUHA / HAV

Flight Track Log - Related Links

Times and Time Zones

All times are in EDT time to prevent confusion due to time zone crossing. See the AFL150 flight status page for this flight to view local times or setup timezone preferences in your user account.

Time Position Orientation Groundspeed Altitude Reporting Facility
EDT Latitude Longitude Course Direction KTS MPH feet Rate Location/Type
06:20AM 55.9640 37.3690 255° West 169 194 1,800  Level FlightAware
06:21AM 55.9620 37.3490 260° West 169 194 2,400 1,500 Climbing FlightAware
06:21AM 55.9560 37.3130 253° West 190 219 2,800 900 Climbing FlightAware
06:21AM 55.9520 37.2800 258° West 213 245 3,100 840 Climbing FlightAware
06:22AM 55.9470 37.2440 256° West 239 275 3,400 1,620 Climbing FlightAware
06:22AM 55.9430 37.2050 260° West 245 282 4,200 2,460 Climbing FlightAware
06:22AM 55.9460 37.1750 280° West 246 283 4,800 2,400 Climbing FlightAware
06:23AM 55.9490 37.1470 281° West 252 290 5,400 2,040 Climbing FlightAware
06:23AM 55.9550 37.1030 284° West 267 307 6,000 1,680 Climbing FlightAware
06:23AM 55.9590 37.0690 282° West 278 320 6,400 2,400 Climbing FlightAware
06:24AM 55.9630 37.0260 279° West 278 320 7,400 2,760 Climbing FlightAware
06:24AM 55.9680 36.9700 279° West 281 323 8,500 2,640 Climbing FlightAware
06:24AM 55.9730 36.9210 280° West 281 323 9,400 2,520 Climbing FlightAware
06:25AM 55.9760 36.8870 279° West 285 328 10,000 1,860 Climbing FlightAware
06:25AM 55.9820 36.8150 279° West 305 351 10,800 1,260 Climbing FlightAware
06:26AM 55.9800 36.7360 267° West 335 386 11,300 1,380 Climbing FlightAware
06:26AM 55.9720 36.6370 262° West 354 407 12,300 2,040 Climbing FlightAware
06:27AM 55.9650 36.5360 263° West 358 412 13,700 2,400 Climbing FlightAware
06:27AM 55.9570 36.4330 262° West 361 415 15,100 2,100 Climbing FlightAware
06:28AM 55.9500 36.3280 263° West 369 425 16,200 2,040 Climbing FlightAware
06:28AM 55.9420 36.2220 262° West 372 428 17,500 2,160 Climbing FlightAware
06:29AM 55.9340 36.1140 263° West 378 435 18,700 1,860 Climbing FlightAware
06:30AM 55.9250 36.0040 262° West 386 444 19,700 1,680 Climbing FlightAware
06:30AM 55.9170 35.8940 263° West 393 452 20,700 1,680 Climbing FlightAware
06:31AM 55.9080 35.7820 262° West 398 458 21,700 1,620 Climbing FlightAware
06:31AM 55.8990 35.6690 262° West 405 466 22,600 1,500 Climbing FlightAware
06:32AM 55.8900 35.5500 262° West 412 474 23,500 1,440 Climbing FlightAware
06:33AM 55.8800 35.4320 261° West 417 480 24,300 1,440 Climbing FlightAware
06:33AM 55.8710 35.3140 262° West 419 482 25,200 1,440 Climbing FlightAware
06:34AM 55.8610 35.1930 262° West 421 484 26,000 1,260 Climbing FlightAware
06:34AM 55.8510 35.0720 262° West 428 493 26,700 1,020 Climbing FlightAware
06:35AM 55.8410 34.9500 262° West 435 501 27,200 900 Climbing FlightAware
06:35AM 55.8460 34.8330 274° West 434 499 27,800 1,080 Climbing FlightAware
06:36AM 55.8650 34.7010 284° West 438 504 28,500 1,080 Climbing FlightAware
06:37AM 55.8800 34.5860 283° West 441 507 29,100 720 Climbing FlightAware
06:37AM 55.8970 34.4550 283° West 449 517 29,400 480 Climbing FlightAware
06:38AM 55.9130 34.3330 283° West 460 529 29,700 840 Climbing FlightAware
06:38AM 55.9290 34.2140 284° West 459 528 30,300 1,080 Climbing FlightAware
06:39AM 55.9480 34.0640 283° West 458 527 31,000 1,080 Climbing FlightAware
06:40AM 55.9620 33.9540 283° West 457 526 31,600 1,140 Climbing FlightAware
06:40AM 55.9790 33.8190 283° West 455 524 32,300 1,080 Climbing FlightAware
06:41AM 55.9960 33.6860 283° West 454 522 32,900 900 Climbing FlightAware
06:41AM 56.0120 33.5550 282° West 453 521 33,400 780 Climbing FlightAware
06:42AM 56.0290 33.4160 282° West 453 521 33,900 480 Climbing FlightAware
06:43AM 56.0460 33.2830 283° West 456 525 34,000 60 Climbing FlightAware
06:43AM 56.0610 33.1530 282° West 457 526 34,000  Level FlightAware
06:44AM 56.0760 33.0290 282° West 458 527 34,000  Level FlightAware
06:44AM 56.0920 32.8970 282° West 455 524 34,000  Level FlightAware
06:45AM 56.1060 32.7740 282° West 453 521 34,000  Level FlightAware
06:45AM 56.1220 32.6420 282° West 451 519 34,000  Level FlightAware
06:46AM 56.1380 32.5030 282° West 449 517 34,000  Level FlightAware
06:47AM 56.1530 32.3730 282° West 447 514 34,000  Level FlightAware
06:47AM 56.1650 32.2620 281° West 447 514 34,000  Level FlightAware
06:48AM 56.1790 32.1350 281° West 447 514 34,000  Level FlightAware
06:49AM 56.1990 31.9560 281° West 448 516 34,000  Level FlightAware
06:49AM 56.2110 31.8440 281° West 448 516 34,000  Level FlightAware
06:50AM 56.2230 31.7320 281° West 448 516 34,000  Level FlightAware
06:50AM 56.2340 31.6260 281° West 448 516 34,000  Level FlightAware
06:51AM 56.2470 31.5110 282° West 448 516 34,000  Level FlightAware
06:52AM 56.2590 31.3990 281° West 448 516 34,000  Level FlightAware
06:52AM 56.2710 31.2870 281° West 448 516 34,000  Level FlightAware
06:53AM 56.2830 31.1750 281° West 448 516 34,000  Level FlightAware
06:54AM 56.2960 31.0590 281° West 448 516 34,000  Level FlightAware
06:54AM 56.3080 30.9470 281° West 448 516 34,000  Level FlightAware
06:55AM 56.3200 30.8350 281° West 448 516 34,000  Level FlightAware
06:55AM 56.3310 30.7290 281° West 448 516 34,000  Level FlightAware
06:56AM 56.3430 30.6170 281° West 448 516 34,000  Level FlightAware
06:56AM 56.3550 30.5040 281° West 448 516 34,000  Level FlightAware
06:57AM 56.4320 30.2550 299° West 34,000  Level FlightAware
06:57AM 56.4360 30.2220 282° West 440 506 34,000  Level FlightAware
06:57AM 56.4510 30.1210 285° West 439 505 34,000  Level FlightAware
06:58AM 56.4690 30.0000 285° West 439 505 34,000  Level FlightAware
06:58AM 56.4880 29.8640 284° West 438 504 34,000  Level FlightAware
06:59AM 56.4910 29.8430 285° West 437 503 34,000  Level FlightAware
07:00AM 56.5070 29.7290 284° West 437 503 34,000  Level FlightAware
07:00AM 56.5460 29.4550 285° West 437 503 34,000  Level FlightAware
07:01AM 56.5580 29.3610 283° West 436 502 34,000  Level FlightAware
07:02AM 56.5820 29.1900 284° West 436 502 34,000  Level FlightAware
07:02AM 56.6030 29.0390 284° West 435 501 34,000  Level FlightAware
07:03AM 56.6030 29.0390 284° West 433 498 34,000  Level FlightAware
07:04AM 56.6380 28.7820 284° West 432 497 34,000  Level FlightAware
07:04AM 56.6540 28.6600 283° West 431 496 34,000  Level FlightAware
07:05AM 56.6710 28.5320 284° West 432 497 34,000  Level FlightAware
07:05AM 56.6870 28.4080 283° West 432 497 34,000  Level FlightAware
07:06AM 56.7040 28.2800 284° West 432 497 34,000  Level FlightAware
07:06AM 56.7200 28.1560 283° West 431 496 34,000  Level FlightAware
07:07AM 56.7370 28.0200 283° West 431 496 34,000  Level FlightAware
07:08AM 56.7520 27.8850 282° West 433 498 34,000  Level FlightAware
07:08AM 56.7580 27.7760 276° West 435 501 34,000  Level FlightAware
07:09AM 56.7650 27.6440 276° West 435 501 34,000  Level FlightAware
07:09AM 56.7720 27.5130 276° West 435 501 34,000  Level FlightAware
07:10AM 56.7780 27.3890 275° West 436 502 34,000  Level FlightAware
07:11AM 56.7840 27.2550 275° West 436 502 34,000  Level FlightAware
07:11AM 56.7910 27.1220 276° West 437 503 34,000  Level FlightAware
07:12AM 56.7960 27.0010 274° West 438 504 34,000  Level FlightAware
07:12AM 56.8020 26.8720 275° West 439 505 34,000  Level FlightAware
07:13AM 56.8080 26.7370 275° West 440 506 34,000  Level FlightAware
07:14AM 56.8140 26.6080 275° West 441 507 34,000  Level FlightAware
07:14AM 56.8190 26.4900 274° West 441 507 34,000  Level FlightAware
07:15AM 56.8240 26.3650 274° West 441 507 34,000  Level FlightAware
07:15AM 56.8290 26.2240 274° West 440 506 34,000  Level FlightAware
07:16AM 56.8330 26.1220 274° West 440 506 34,000  Level FlightAware
07:16AM 56.8390 25.9820 275° West 439 505 34,000  Level FlightAware
07:17AM 56.8430 25.8660 274° West 439 505 34,000  Level FlightAware
07:17AM 56.8480 25.7300 274° West 440 506 34,000  Level FlightAware
07:18AM 56.8520 25.5930 273° West 441 507 34,000  Level FlightAware
07:19AM 56.8570 25.4760 275° West 440 506 34,000  Level FlightAware
07:19AM 56.8640 25.3440 276° West 438 504 34,000  Level FlightAware
07:20AM 56.8700 25.2150 275° West 438 504 34,000  Level FlightAware
07:20AM 56.8760 25.0800 275° West 438 504 34,000  Level FlightAware
07:21AM 56.8810 24.9600 274° West 437 503 34,000  Level FlightAware
07:22AM 56.8870 24.8280 275° West 437 503 34,000  Level FlightAware
07:22AM 56.8930 24.6920 275° West 438 504 34,000  Level FlightAware
07:23AM 56.8980 24.5650 274° West 439 505 34,000  Level FlightAware
07:23AM 56.9030 24.4440 274° West 439 505 34,000  Level FlightAware
07:24AM 56.9080 24.3070 274° West 438 504 34,000  Level FlightAware
07:25AM 56.9130 24.1800 274° West 438 504 34,000  Level FlightAware
07:25AM 56.9170 24.0620 274° West 438 504 34,000  Level FlightAware
07:26AM 56.9130 23.9300 267° West 441 507 34,000  Level FlightAware
07:26AM 56.9010 23.8090 260° West 446 513 34,000  Level FlightAware
07:27AM 56.8820 23.6610 257° West 444 511 34,000  Level FlightAware
07:27AM 56.8660 23.5410 256° West 446 513 34,000  Level FlightAware
07:28AM 56.8490 23.4060 257° West 446 513 34,000  Level FlightAware
07:29AM 56.8310 23.2730 256° West 446 513 34,000  Level FlightAware
07:29AM 56.8150 23.1550 256° West 446 513 34,000  Level FlightAware
07:30AM 56.7990 23.0350 256° West 447 514 34,000  Level FlightAware
07:30AM 56.7810 22.9010 256° West 446 513 34,000  Level FlightAware
07:31AM 56.7620 22.7670 256° West 444 511 34,000  Level FlightAware
07:31AM 56.7460 22.6490 256° West 443 510 34,000  Level FlightAware
07:32AM 56.7270 22.5280 254° West 447 514 34,000  Level FlightAware
07:33AM 56.6970 22.4010 247° West 451 519 34,000  Level FlightAware
07:33AM 56.6700 22.2930 246° West 451 519 34,000  Level FlightAware
07:34AM 56.6360 22.1610 245° Southwest 453 521 34,000  Level FlightAware
07:34AM 56.6060 22.0380 246° West 453 521 34,000  Level FlightAware
07:35AM 56.5750 21.9150 245° Southwest 454 522 34,000  Level FlightAware
07:36AM 56.5480 21.7920 248° West 448 516 34,000  Level FlightAware
07:36AM 56.5370 21.6560 262° West 443 510 34,000  Level FlightAware
07:37AM 56.5280 21.5500 261° West 443 510 34,000  Level FlightAware
07:37AM 56.5170 21.4150 262° West 444 511 34,000  Level FlightAware
07:38AM 56.5070 21.2830 262° West 445 512 34,000  Level FlightAware
07:38AM 56.4970 21.1610 262° West 446 513 34,000  Level FlightAware
07:39AM 56.4860 21.0290 261° West 445 512 34,000  Level FlightAware
07:40AM 56.4750 20.8930 262° West 445 512 34,000  Level FlightAware
07:40AM 56.4630 20.7480 262° West 446 513 34,000  Level FlightAware
07:41AM 56.4520 20.6160 261° West 446 513 34,000  Level FlightAware
07:42AM 56.4400 20.4860 261° West 447 514 34,000  Level FlightAware
07:42AM 56.4290 20.3530 262° West 447 514 34,000  Level FlightAware
07:43AM 56.4170 20.2230 261° West 448 516 34,000  Level FlightAware
07:43AM 56.4060 20.1010 261° West 448 516 34,000  Level FlightAware
07:44AM 56.3940 19.9620 261° West 449 517 34,000  Level FlightAware
07:44AM 56.3820 19.8330 261° West 450 518 34,000  Level FlightAware
07:45AM 56.3700 19.7100 260° West 449 517 34,000  Level FlightAware
07:46AM 56.3560 19.5550 261° West 448 516 34,000  Level FlightAware
07:46AM 56.3440 19.4280 260° West 447 514 34,000  Level FlightAware
07:47AM 56.3320 19.3030 260° West 448 516 34,000  Level FlightAware
07:47AM 56.3190 19.1760 260° West 448 516 34,000  Level FlightAware
07:48AM 56.3060 19.0390 260° West 449 517 34,000  Level FlightAware
07:49AM 56.2930 18.9130 260° West 451 519 34,000  Level FlightAware
07:49AM 56.2800 18.7830 260° West 452 520 34,000  Level FlightAware
07:50AM 56.2620 18.6580 256° West 454 522 34,000  Level FlightAware
07:50AM 56.2430 18.5180 256° West 452 520 34,000  Level FlightAware
07:51AM 56.2270 18.4020 256° West 452 520 34,000  Level FlightAware
07:52AM 56.2090 18.2700 256° West 451 519 34,000  Level FlightAware
07:52AM 56.1910 18.1400 256° West 450 518 34,000  Level FlightAware
07:53AM 56.1750 18.0260 256° West 450 518 34,000  Level FlightAware
07:53AM 56.1619 17.9285 256° West 452 520 34,000  Level FlightAware ADS-B (ESMN)
07:54AM 56.1460 17.7760 259° West 447 514 34,000  Level FlightAware
07:54AM 56.1486 17.7117 274° West 447 514 34,000  Level FlightAware ADS-B (ESMN)
07:55AM 56.1535 17.5995 275° West 447 514 34,000  Level FlightAware ADS-B (ESMN)
07:55AM 56.1595 17.4512 274° West 448 516 34,000  Level FlightAware ADS-B (ESMN)
07:56AM 56.1629 17.3626 274° West 449 517 34,000  Level FlightAware ADS-B (ESMN)
07:56AM 56.1681 17.2313 274° West 450 518 34,000  Level FlightAware ADS-B (ESMN)
07:57AM 56.1733 17.0966 274° West 450 518 34,000  Level FlightAware ADS-B (ESMN)
07:58AM 56.1784 16.9601 274° West 451 519 34,000  Level FlightAware ADS-B (ESMN)
07:58AM 56.1853 16.7663 274° West 452 520 34,000  Level FlightAware ADS-B (ESMN)
07:59AM 56.1896 16.6357 273° West 453 521 34,000  Level FlightAware ADS-B (ESMN)
08:00AM 56.1943 16.4874 273° West 453 521 34,000  Level FlightAware ADS-B (ESMN)
08:00AM 56.1990 16.3380 273° West 453 521 34,000  Level FlightAware
08:01AM 56.2004 16.2856 273° West 455 524 34,000  Level FlightAware ADS-B (ESMN)
08:01AM 56.2059 16.0966 273° West 456 525 34,000  Level FlightAware ADS-B (ESMN)
08:02AM 56.2102 15.9383 273° West 457 526 34,000  Level FlightAware ADS-B (ESMN)
08:03AM 56.2134 15.8167 273° West 457 526 34,000  Level FlightAware ADS-B (ESMN)
08:03AM 56.2170 15.6860 273° West 456 525 34,000  Level FlightAware
08:03AM 56.2180 15.6331 272° West 456 525 34,000  Level FlightAware ADS-B (ESMN)
08:04AM 56.2218 15.4689 272° West 456 525 34,000  Level FlightAware ADS-B (ESMN)
08:05AM 56.2245 15.3498 272° West 455 524 34,000  Level FlightAware ADS-B (ESMN)
08:06AM 56.2290 15.1470 272° West 455 524 34,000  Level FlightAware
08:06AM 56.2310 15.0270 272° West 456 525 34,000  Level FlightAware
08:07AM 56.2340 14.8970 272° West 457 526 34,000  Level FlightAware
08:07AM 56.2360 14.7610 272° West 459 528 34,000  Level FlightAware
08:08AM 56.2390 14.6240 272° West 461 531 34,000  Level FlightAware
08:09AM 56.2410 14.4770 271° West 462 532 34,000  Level FlightAware
08:09AM 56.2420 14.3570 271° West 464 534 34,000  Level FlightAware
08:10AM 56.2440 14.2090 271° West 465 535 34,000  Level FlightAware
08:10AM 56.2457 14.1016 272° West 465 535 34,000  Level FlightAware ADS-B (ESMN)
08:11AM 56.2470 13.9550 271° West 465 535 34,000  Level FlightAware
08:11AM 56.2483 13.8642 272° West 465 535 34,000  Level FlightAware ADS-B (ESMN)
08:12AM 56.2510 13.6170 271° West 466 536 34,000  Level FlightAware
08:13AM 56.2520 13.4940 271° West 466 536 34,000  Level FlightAware
08:13AM 56.2520 13.3650 270° West 466 536 34,000  Level FlightAware
08:14AM 56.2530 13.2170 271° West 466 536 34,000  Level FlightAware
08:15AM 56.2540 13.0840 271° West 466 536 34,000  Level FlightAware
08:15AM 56.2539 13.0221 270° West 466 536 34,000  Level FlightAware ADS-B (ESMN)
08:15AM 56.2543 12.8662 270° West 467 537 34,000  Level FlightAware ADS-B (ESMN)
08:16AM 56.2546 12.7456 270° West 468 539 34,000  Level FlightAware ADS-B (ESMN)
08:16AM 56.2546 12.6346 270° West 469 540 34,000  Level FlightAware ADS-B (ESMN)
08:17AM 56.2544 12.5103 270° West 469 540 34,000  Level FlightAware ADS-B (ESMN)
08:18AM 56.2543 12.3869 270° West 469 540 34,000  Level FlightAware ADS-B (ESMN)
08:18AM 56.2540 12.2651 270° West 468 539 34,000  Level FlightAware ADS-B (ESMN)
08:19AM 56.2540 12.1380 270° West 466 536 34,000  Level FlightAware
08:19AM 56.2533 12.0713 269° West 466 536 34,000  Level FlightAware ADS-B (ESMN)
08:20AM 56.2520 11.8530 269° West 467 537 34,000  Level FlightAware
08:20AM 56.2525 11.9206 89° East 467 537 34,000  Level FlightAware ADS-B (ESMN)
08:20AM 56.2512 11.7173 269° West 468 539 34,000  Level FlightAware ADS-B (ESMN)
08:21AM 56.2503 11.5922 269° West 469 540 34,000  Level FlightAware ADS-B (ESMN)
08:22AM 56.2490 11.4489 269° West 471 542 34,000  Level FlightAware ADS-B (ESMN)
08:22AM 56.2477 11.3247 269° West 472 543 34,000  Level FlightAware ADS-B (ESMN)
08:23AM 56.2463 11.1944 269° West 473 544 34,000  Level FlightAware ADS-B (ESMN)
08:23AM 56.2447 11.0724 269° West 474 545 34,000  Level FlightAware ADS-B (ESMN)
08:24AM 56.2433 10.9576 269° West 474 545 34,000  Level FlightAware ADS-B (ESMN)
08:24AM 56.2417 10.8429 269° West 473 544 34,000  Level FlightAware ADS-B (ESMN)
08:25AM 56.2380 10.6270 268° West 474 545 34,000  Level FlightAware
08:25AM 56.2368 10.5294 269° West 475 547 34,000  Level FlightAware ADS-B (ESMN)
08:26AM 56.2331 10.3271 268° West 479 551 34,000  Level FlightAware ADS-B (ESMN)
08:27AM 56.2292 10.1272 268° West 480 552 34,000  Level FlightAware ADS-B (ESMN)
08:28AM 56.2261 9.9811 268° West 481 554 34,000  Level FlightAware ADS-B (ESMN)
08:29AM 56.2220 9.7970 268° West 481 554 34,000  Level FlightAware
08:29AM 56.2190 9.6520 268° West 480 552 34,000  Level FlightAware
08:30AM 56.2160 9.5210 268° West 480 552 34,000  Level FlightAware
08:30AM 56.2120 9.3850 267° West 480 552 34,000  Level FlightAware
08:31AM 56.2080 9.2350 267° West 481 554 34,000  Level FlightAware
08:31AM 56.2050 9.1170 267° West 482 555 34,000  Level FlightAware
08:32AM 56.2000 8.9650 267° West 483 556 34,000  Level FlightAware
08:33AM 56.1960 8.8200 267° West 483 556 34,000  Level FlightAware
08:33AM 56.1910 8.6750 267° West 485 558 34,000  Level FlightAware
08:34AM 56.1870 8.5300 267° West 487 560 34,000  Level FlightAware
08:34AM 56.1820 8.4020 266° West 489 563 34,000  Level FlightAware
08:35AM 56.1780 8.2720 267° West 490 564 34,000  Level FlightAware
08:36AM 56.1720 8.1110 266° West 492 566 34,000  Level FlightAware
08:36AM 56.1670 7.9690 266° West 493 567 34,000  Level FlightAware
08:37AM 56.1620 7.8390 266° West 494 568 34,000  Level FlightAware
08:37AM 56.1560 7.6870 266° West 496 571 34,000  Level FlightAware
08:38AM 56.1500 7.5410 266° West 497 572 34,000  Level FlightAware
08:38AM 56.1450 7.4130 266° West 499 574 34,000  Level FlightAware
08:39AM 56.1380 7.2570 265° West 501 577 34,000  Level FlightAware
08:40AM 56.1310 7.1110 265° West 503 579 34,000  Level FlightAware
08:40AM 56.1250 6.9640 266° West 504 580 34,000  Level FlightAware
08:41AM 56.1180 6.8260 265° West 504 580 34,000  Level FlightAware
08:41AM 56.1110 6.6800 265° West 504 580 34,000  Level FlightAware
08:42AM 56.1040 6.5400 265° West 504 580 34,000  Level FlightAware
08:43AM 56.0970 6.3870 265° West 504 580 34,000  Level FlightAware
08:43AM 56.0890 6.2420 264° West 503 579 34,000  Level FlightAware
08:44AM 56.0820 6.0960 265° West 503 579 34,000  Level FlightAware
08:44AM 56.0740 5.9460 265° West 502 578 34,000  Level FlightAware
08:45AM 56.0660 5.8130 264° West 501 577 34,000  Level FlightAware
08:45AM 56.0580 5.6690 264° West 500 575 34,000  Level FlightAware
08:46AM 56.0500 5.5190 265° West 499 574 34,000  Level FlightAware
08:47AM 56.0396 5.3515 265° West 1 1 34,000  Level FlightAware UK
08:47AM 56.0400 5.3520 265° West 498 573 34,000  Level FlightAware
08:47AM 56.0307 5.2053 265° West 458 527 34,000  Level FlightAware UK
08:48AM 56.0280 5.1590 265° West 497 572 34,000  Level FlightAware
08:48AM 56.0210 5.0390 264° West 498 573 34,000  Level FlightAware
08:49AM 56.0110 4.8780 264° West 497 572 34,000  Level FlightAware
08:49AM 56.0020 4.7350 264° West 497 572 34,000  Level FlightAware
08:50AM 55.9920 4.5830 263° West 496 571 34,000  Level FlightAware
08:50AM 55.9840 4.4620 263° West 497 572 34,000  Level FlightAware
08:51AM 55.9747 4.3250 263° West 460 529 34,000  Level FlightAware UK
08:51AM 55.9730 4.3020 263° West 496 571 34,000  Level FlightAware
08:52AM 55.9630 4.1510 263° West 495 570 34,000  Level FlightAware
08:52AM 55.9520 4.0040 262° West 494 568 34,000  Level FlightAware
08:53AM 55.9430 3.8660 263° West 494 568 34,000  Level FlightAware
08:53AM 55.9340 3.7490 262° West 494 568 34,000  Level FlightAware
08:54AM 55.9210 3.5830 262° West 494 568 34,000  Level FlightAware
08:55AM 55.9140 3.4210 266° West 489 563 34,000  Level FlightAware
08:55AM 55.9180 3.2540 273° West 485 558 34,000  Level FlightAware
08:56AM 55.9210 3.1250 272° West 484 557 34,000  Level FlightAware
08:57AM 55.9230 2.9820 271° West 482 555 34,000  Level FlightAware
08:57AM 55.9260 2.8270 272° West 482 555 34,000  Level FlightAware
08:58AM 55.9280 2.6860 272° West 482 555 34,000  Level FlightAware
08:58AM 55.9300 2.5610 272° West 482 555 34,000  Level FlightAware
08:59AM 55.9320 2.4280 272° West 482 555 34,000  Level FlightAware
08:59AM 55.9340 2.2840 271° West 482 555 34,000  Level FlightAware
09:00AM 55.9350 2.1540 271° West 482 555 34,000  Level FlightAware
09:01AM 55.9370 2.0090 271° West 481 554 34,000  Level FlightAware
09:01AM 55.9369 1.9831 270° West 481 554 34,000 480 Level FlightAware ADS-B
09:01AM 55.9380 1.8640 271° West 484 557 34,300 600 Climbing FlightAware
09:01AM 55.9384 1.8300 271° West 485 558 34,400 720 Climbing FlightAware ADS-B
09:02AM 55.9394 1.7064 271° West 486 559 34,800 960 Climbing FlightAware ADS-B
09:02AM 55.9402 1.5894 271° West 483 556 35,400 1,020 Climbing FlightAware ADS-B
09:03AM 55.9410 1.4634 271° West 482 555 35,900 480 Climbing FlightAware ADS-B
09:03AM 55.9416 1.3401 271° West 464 534 35,900 120 Level FlightAware UK
09:04AM 55.9418 1.3020 271° West 481 554 36,000 120 Climbing FlightAware ADS-B
09:04AM 55.9422 1.1740 271° West 460 529 36,000  Level FlightAware UK
09:04AM 55.9420 1.1690 271° West 476 548 36,000  Level FlightAware
09:04AM 55.9424 1.1628 276° West 476 548 36,000  Level FlightAware ADS-B
09:05AM 55.9428 1.0383 270° West 471 542 36,000  Level FlightAware ADS-B
09:05AM 55.9430 0.8934 270° West 472 543 36,000  Level FlightAware ADS-B
09:06AM 55.9431 0.7465 270° West 470 541 36,000  Level FlightAware ADS-B
09:06AM 55.9430 0.6254 270° West 470 541 36,000  Level FlightAware ADS-B
09:07AM 55.9428 0.5093 270° West 469 540 36,000  Level FlightAware ADS-B
09:08AM 55.9425 0.3670 270° West 469 540 36,000  Level FlightAware ADS-B
09:08AM 55.9421 0.2511 270° West 469 540 36,000  Level FlightAware ADS-B
09:09AM 55.9416 0.1353 270° West 469 540 36,000  Level FlightAware ADS-B
09:09AM 55.9409 0.0160 270° West 469 540 36,000  Level FlightAware ADS-B
09:10AM 55.9401 -0.1102 269° West 471 542 36,000  Level FlightAware ADS-B
09:10AM 55.9392 -0.2322 269° West 473 544 36,000  Level FlightAware ADS-B
09:11AM 55.9381 -0.3526 269° West 473 544 36,000  Level FlightAware ADS-B
09:11AM 55.9371 -0.4722 269° West 474 545 36,000  Level FlightAware ADS-B
09:12AM 55.9359 -0.5872 269° West 472 543 36,000  Level FlightAware ADS-B
09:12AM 55.9343 -0.7323 269° West 469 540 36,000  Level FlightAware ADS-B
09:13AM 55.9334 -0.8047 269° West 469 540 36,000  Level FlightAware ADS-B (CYOW)
09:13AM 55.9309 -0.9909 269° West 468 539 36,000  Level FlightAware ADS-B
09:14AM 55.9295 -1.0852 269° West 467 537 36,000  Level FlightAware ADS-B
09:14AM 55.9219 -1.2298 265° West 465 535 36,000  Level FlightAware ADS-B
09:15AM 55.9207 -1.2452 262° West 465 535 36,000  Level FlightAware ADS-B (CYOW)
09:15AM 55.9133 -1.3445 262° West 464 534 36,000  Level FlightAware ADS-B
09:16AM 55.9060 -1.4485 263° West 464 534 36,000  Level FlightAware ADS-B (CYOW)
09:16AM 55.8927 -1.6462 263° West 466 536 36,000  Level FlightAware ADS-B
09:17AM 55.8846 -1.7645 263° West 467 537 36,000  Level FlightAware ADS-B
09:17AM 55.8760 -1.8827 263° West 465 535 36,000  Level FlightAware ADS-B
09:17AM 55.8742 -1.9078 262° West 465 535 36,000  Level FlightAware ADS-B
09:18AM 55.8722 -1.9345 263° West 466 536 36,000  Level FlightAware ADS-B (EGXW / WTN)
09:18AM 55.8620 -2.0719 263° West 465 535 36,000  Level FlightAware ADS-B
09:18AM 55.8612 -2.0832 262° West 465 535 36,000  Level FlightAware ADS-B (CYOW)
09:19AM 55.8506 -2.2242 262° West 467 537 36,000  Level FlightAware ADS-B
09:19AM 55.8400 -2.3617 262° West 465 535 36,000  Level FlightAware ADS-B
09:20AM 55.8313 -2.4741 262° West 463 533 36,000  Level FlightAware ADS-B
09:21AM 55.8218 -2.5965 262° West 462 532 36,000  Level FlightAware ADS-B
09:21AM 55.8125 -2.7129 262° West 461 531 36,000  Level FlightAware ADS-B
09:22AM 55.8036 -2.8244 262° West 461 531 36,000  Level FlightAware ADS-B
09:22AM 55.7932 -2.9523 262° West 460 529 36,000  Level FlightAware ADS-B
09:23AM 55.7820 -3.0883 262° West 461 531 36,000  Level FlightAware ADS-B
09:23AM 55.7709 -3.2213 262° West 462 532 36,000  Level FlightAware ADS-B
09:24AM 55.7622 -3.3234 261° West 462 532 36,000  Level FlightAware ADS-B (CYOW)
09:25AM 55.7474 -3.4959 261° West 463 533 36,000  Level FlightAware ADS-B
09:25AM 55.7343 -3.6461 261° West 459 528 36,000  Level FlightAware ADS-B
09:26AM 55.7217 -3.7893 261° West 462 532 36,000  Level FlightAware ADS-B
09:26AM 55.7100 -3.9230 261° West 463 533 36,000  Level FlightAware
09:27AM 55.7061 -3.9632 260° West 463 533 36,000  Level FlightAware ADS-B (CYOW)
09:28AM 55.6897 -4.1442 261° West 464 534 36,000  Level FlightAware ADS-B (CYOW)
09:28AM 55.6836 -4.2096 261° West 466 536 36,000  Level FlightAware ADS-B (EGGP / LPL)
09:28AM 55.6730 -4.3220 261° West 465 535 36,000  Level FlightAware
09:29AM 55.6690 -4.3648 261° West 464 534 36,000  Level FlightAware ADS-B (CYOW)
09:29AM 55.6566 -4.4969 261° West 466 536 36,000  Level FlightAware ADS-B (CYOW)
09:30AM 55.6419 -4.6497 260° West 470 541 36,000  Level FlightAware ADS-B (CYOW)
09:31AM 55.6222 -4.8528 260° West 471 542 36,000  Level FlightAware ADS-B (CYOW)
09:31AM 55.6087 -4.9906 260° West 454 522 36,000  Level FlightAware UK
09:32AM 55.6013 -5.0637 260° West 472 543 36,000  Level FlightAware ADS-B (CYOW)
09:32AM 55.5860 -5.2150 260° West 474 545 36,000  Level FlightAware
09:32AM 55.5837 -5.2408 260° West 454 522 36,000  Level FlightAware UK
09:32AM 55.5827 -5.2481 260° West 474 545 36,000  Level FlightAware ADS-B (CYOW)
09:33AM 55.5663 -5.4088 260° West 476 548 36,000  Level FlightAware ADS-B (CYOW)
09:34AM 55.5530 -5.5894 263° West 482 555 36,000  Level FlightAware ADS-B (CYOW)
09:35AM 55.5502 -5.7728 263° West 456 525 36,000  Level FlightAware UK
09:35AM 55.5500 -5.7810 263° West 483 556 36,000  Level FlightAware
09:35AM 55.5492 -5.8047 267° West 483 556 36,000  Level FlightAware ADS-B (CYOW)
09:35AM 55.5451 -5.9863 268° West 481 554 36,000  Level FlightAware ADS-B (CYOW)
09:36AM 55.5411 -6.1513 268° West 481 554 36,000 -120 Level FlightAware ADS-B (CYOW)
09:37AM 55.5372 -6.3121 268° West 466 536 35,900  Descending FlightAware UK
09:37AM 55.5363 -6.3453 268° West 479 551 36,000 120 Climbing FlightAware ADS-B (CYOW)
09:38AM 55.5330 -6.4750 268° West 478 550 36,000  Level FlightAware
09:38AM 55.5314 -6.5281 267° West 478 550 36,000  Level FlightAware ADS-B (CYOW)
09:38AM 55.5272 -6.6847 267° West 458 527 36,000  Level FlightAware UK
09:39AM 55.5283 -6.6933 267° West 483 556 36,000  Level FlightAware ADS-B (CYOW)
09:39AM 55.5461 -6.8949 267° West 454 522 36,000  Level FlightAware UK
09:39AM 55.5480 -6.9170 267° West 487 560 36,000  Level FlightAware
09:40AM 55.5600 -7.0560 279° West 488 562 36,000  Level FlightAware
09:40AM 55.5617 -7.0733 280° West 489 563 36,000  Level FlightAware ADS-B (CYOW)
09:41AM 55.5720 -7.1940 279° West 488 562 36,000  Level FlightAware
09:41AM 55.5851 -7.3413 279° West 489 563 36,000  Level FlightAware ADS-B (CYOW)
09:42AM 55.5960 -7.4630 279° West 488 562 36,000  Level FlightAware
09:42AM 55.6070 -7.5970 278° West 488 562 36,000  Level FlightAware
09:43AM 55.6190 -7.7430 278° West 488 562 36,000  Level FlightAware
09:44AM 55.6300 -7.8740 278° West 490 564 36,000  Level FlightAware
09:44AM 55.6310 -7.8872 278° West 456 525 36,000  Level FlightAware UK
09:44AM 55.6406 -8.0060 278° West 460 529 36,000  Level FlightAware UK
09:44AM 55.6430 -8.0350 278° West 491 565 36,000  Level FlightAware
09:45AM 55.6520 -8.1520 278° West 490 564 36,000  Level FlightAware
09:45AM 55.6630 -8.2940 278° West 488 562 36,000  Level FlightAware
09:46AM 55.6740 -8.4260 278° West 487 560 36,000  Level FlightAware
09:46AM 55.6850 -8.5730 278° West 486 559 36,000  Level FlightAware
09:47AM 55.6959 -8.7168 278° West 460 529 36,000  Level FlightAware UK
09:47AM 55.6940 -8.6920 278° West 484 557 36,000  Level FlightAware
09:48AM 55.7063 -8.8564 278° West 466 536 36,000  Level FlightAware UK
09:48AM 55.7050 -8.8490 278° West 479 551 36,000  Level FlightAware
09:48AM 55.7146 -8.9718 278° West 464 534 36,000  Level FlightAware UK
09:48AM 55.7150 -8.9850 278° West 476 548 36,000  Level FlightAware
09:49AM 55.7270 -9.1420 278° West 473 544 36,000  Level FlightAware
09:49AM 55.7360 -9.2780 277° West 474 545 36,000  Level FlightAware
09:50AM 55.7450 -9.4110 277° West 475 547 36,000  Level FlightAware
09:51AM 55.7560 -9.5720 277° West 475 547 36,000  Level FlightAware
09:51AM 55.7660 -9.7090 277° West 476 548 36,000  Level FlightAware
09:52AM 55.7760 -9.8630 277° West 477 549 36,000  Level FlightAware
09:53AM 55.7830 -9.9830 276° West 479 551 36,000  Level FlightAware
09:53AM 55.7930 -10.1370 277° West 478 550 36,000  Level FlightAware
09:54AM 55.8010 -10.2560 277° West 478 550 36,000  Level FlightAware
09:54AM 55.8100 -10.4080 276° West 478 550 36,000  Level FlightAware
09:55AM 55.8210 -10.5920 276° West 478 550 36,000  Level FlightAware
09:56AM 55.8280 -10.7150 276° West 478 550 36,000  Level FlightAware
09:57AM 55.8400 -10.9190 276° West 479 551 36,000  Level FlightAware
09:57AM 55.8500 -11.1180 275° West 479 551 36,000  Level FlightAware
09:58AM 55.8610 -11.3050 276° West 480 552 36,000  Level FlightAware
09:59AM 55.8680 -11.4440 275° West 478 550 36,000  Level FlightAware
09:59AM 55.8750 -11.5750 275° West 478 550 36,000  Level FlightAware
10:00AM 55.8830 -11.7650 274° West 478 550 36,000  Level FlightAware
10:01AM 55.8880 -11.8920 274° West 478 550 36,000  Level FlightAware
10:02AM 55.8930 -12.0120 274° West 478 550 36,000  Level FlightAware
10:02AM 55.8980 -12.1330 274° West 478 550 36,000  Level FlightAware
10:03AM 55.9020 -12.2560 273° West 478 550 36,000  Level FlightAware
10:03AM 55.9070 -12.3770 274° West 478 550 36,000  Level FlightAware
10:04AM 55.9120 -12.4970 274° West 478 550 36,000  Level FlightAware
10:05AM 55.9170 -12.6240 274° West 478 550 36,000  Level FlightAware
10:05AM 55.9210 -12.7450 273° West 478 550 36,000  Level FlightAware
10:06AM 55.9260 -12.8590 275° West 478 550 36,000  Level FlightAware
10:06AM 55.9310 -12.9860 274° West 478 550 36,000  Level FlightAware
10:07AM 55.9360 -13.1060 274° West 478 550 36,000  Level FlightAware
10:08AM 55.9400 -13.2270 273° West 478 550 36,000  Level FlightAware
10:08AM 55.9460 -13.3810 274° West 478 550 36,000  Level FlightAware
10:09AM 55.9510 -13.5010 274° West 478 550 36,000  Level FlightAware
10:10AM 55.9560 -13.6220 274° West 478 550 36,000  Level FlightAware
10:12AM 55.9401 -14.0278 266° West  Level Estimated
10:13AM 55.9316 -14.2322 266° West  Level Estimated
10:14AM 55.9228 -14.4366 266° West  Level Estimated
10:15AM 55.9136 -14.6408 266° West  Level Estimated
10:16AM 55.9041 -14.8450 265° West  Level Estimated
10:17AM 55.9045 -15.0829 270° West  Level FlightAware Approximate
10:18AM 55.9045 -15.3209 270° West  Level FlightAware Approximate
10:19AM 55.9040 -15.5589 270° West  Level FlightAware Approximate
10:20AM 55.9031 -15.7969 270° West  Level FlightAware Approximate
10:21AM 55.9017 -16.0349 269° West  Level FlightAware Approximate
10:22AM 55.8998 -16.2728 269° West  Level FlightAware Approximate
10:23AM 55.8975 -16.5108 269° West  Level FlightAware Approximate
10:24AM 55.8947 -16.7482 269° West  Level FlightAware Approximate
10:25AM 55.8915 -16.9856 269° West  Level FlightAware Approximate
10:26AM 55.8878 -17.2231 269° West  Level FlightAware Approximate
10:27AM 55.8836 -17.4604 268° West  Level FlightAware Approximate
10:28AM 55.8790 -17.6978 268° West  Level FlightAware Approximate
10:29AM 55.8740 -17.9350 268° West  Level FlightAware Approximate
10:30AM 55.8684 -18.1722 268° West  Level FlightAware Approximate
10:31AM 55.8625 -18.4093 268° West  Level FlightAware Approximate
10:32AM 55.8560 -18.6464 267° West  Level FlightAware Approximate
10:33AM 55.8492 -18.8834 267° West  Level FlightAware Approximate
10:34AM 55.8418 -19.1203 267° West  Level FlightAware Approximate
10:35AM 55.8340 -19.3570 267° West  Level FlightAware Approximate
10:35AM 56.0000 -20.0000 264° West 481 554 36,000  Level ETMS Enhanced Traffic Management System
10:36AM 55.8258 -19.5937 267° West  Level FlightAware Approximate
10:37AM 55.8171 -19.8303 266° West  Level FlightAware Approximate
10:38AM 55.8079 -20.0668 266° West  Level FlightAware Approximate
10:39AM 55.7983 -20.3032 266° West  Level FlightAware Approximate
10:40AM 55.7882 -20.5394 266° West  Level FlightAware Approximate
10:41AM 55.9099 -21.4232 263° West 481 554 36,000  Level FlightAware Transoceanic
10:42AM 55.8933 -21.6597 263° West 481 554 36,000  Level FlightAware Transoceanic
10:43AM 55.8762 -21.8960 263° West 481 554 36,000  Level FlightAware Transoceanic
10:44AM 55.8587 -22.1321 262° West 481 554 36,000  Level FlightAware Transoceanic
10:45AM 55.8407 -22.3680 262° West 481 554 36,000  Level FlightAware Transoceanic
10:46AM 55.8223 -22.6037 262° West 481 554 36,000  Level FlightAware Transoceanic
10:47AM 55.8034 -22.8391 262° West 481 554 36,000  Level FlightAware Transoceanic
10:48AM 55.7841 -23.0743 262° West 481 554 36,000  Level FlightAware Transoceanic
10:49AM 55.7644 -23.3093 261° West 481 554 36,000  Level FlightAware Transoceanic
10:50AM 55.7441 -23.5441 261° West 481 554 36,000  Level FlightAware Transoceanic
10:51AM 55.7235 -23.7785 261° West 481 554 36,000  Level FlightAware Transoceanic
10:52AM 55.7024 -24.0128 261° West 481 554 36,000  Level FlightAware Transoceanic
10:53AM 55.6808 -24.2468 261° West 481 554 36,000  Level FlightAware Transoceanic
10:54AM 55.6588 -24.4805 260° West 481 554 36,000  Level FlightAware Transoceanic
10:55AM 55.6364 -24.7140 260° West 481 554 36,000  Level FlightAware Transoceanic
10:56AM 55.6135 -24.9472 260° West 481 554 36,000  Level FlightAware Transoceanic
10:57AM 55.5902 -25.1801 260° West 481 554 36,000  Level FlightAware Transoceanic
10:58AM 55.5664 -25.4127 260° West 481 554 36,000  Level FlightAware Transoceanic
10:59AM 55.5422 -25.6451 259° West 481 554 36,000  Level FlightAware Transoceanic
11:00AM 55.5175 -25.8771 259° West 481 554 36,000  Level FlightAware Transoceanic
11:01AM 55.4925 -26.1089 259° West 481 554 36,000  Level FlightAware Transoceanic
11:02AM 55.4669 -26.3404 259° West 481 554 36,000  Level FlightAware Transoceanic
11:03AM 55.4410 -26.5716 259° West 481 554 36,000  Level FlightAware Transoceanic
11:04AM 55.4146 -26.8024 259° West 481 554 36,000  Level FlightAware Transoceanic
11:05AM 55.3878 -27.0330 258° West 481 554 36,000  Level FlightAware Transoceanic
11:06AM 55.3605 -27.2632 258° West 481 554 36,000  Level FlightAware Transoceanic
11:07AM 55.3328 -27.4931 258° West 481 554 36,000  Level FlightAware Transoceanic
11:08AM 55.3047 -27.7227 258° West 481 554 36,000  Level FlightAware Transoceanic
11:09AM 55.2761 -27.9520 258° West 481 554 36,000  Level FlightAware Transoceanic
11:10AM 55.2472 -28.1809 257° West 481 554 36,000  Level FlightAware Transoceanic
11:11AM 55.2178 -28.4095 257° West 481 554 36,000  Level FlightAware Transoceanic
11:12AM 55.1879 -28.6378 257° West 481 554 36,000  Level FlightAware Transoceanic
11:13AM 55.1576 -28.8657 257° West 481 554 36,000  Level FlightAware Transoceanic
11:14AM 55.1270 -29.0933 257° West 481 554 36,000  Level FlightAware Transoceanic
11:15AM 55.0959 -29.3205 256° West 481 554 36,000  Level FlightAware Transoceanic
11:16AM 55.0643 -29.5474 256° West 481 554 36,000  Level FlightAware Transoceanic
11:17AM 55.0324 -29.7739 256° West 481 554 36,000  Level FlightAware Transoceanic
11:18AM 55.0001 -29.9993 256° West  Level FlightAware Approximate
11:19AM 54.9669 -30.2241 256° West  Level FlightAware Approximate
11:20AM 54.9662 -30.2232 255° West  Level FlightAware Approximate
11:21AM 54.9318 -30.4473 255° West  Level FlightAware Approximate
11:22AM 54.8969 -30.6709 255° West  Level FlightAware Approximate
11:23AM 54.8617 -30.8942 255° West  Level FlightAware Approximate
11:24AM 54.8261 -31.1171 255° West  Level FlightAware Approximate
11:25AM 54.7900 -31.3396 254° West  Level FlightAware Approximate
11:26AM 54.7536 -31.5617 254° West  Level FlightAware Approximate
11:27AM 54.7167 -31.7834 254° West  Level FlightAware Approximate
11:28AM 54.6795 -32.0047 254° West  Level FlightAware Approximate
11:29AM 54.6418 -32.2256 254° West  Level FlightAware Approximate
11:30AM 54.6037 -32.4460 253° West  Level FlightAware Approximate
11:31AM 54.5653 -32.6661 253° West  Level FlightAware Approximate
11:32AM 54.5264 -32.8857 253° West  Level FlightAware Approximate
11:33AM 54.4871 -33.1049 253° West  Level FlightAware Approximate
11:34AM 54.4475 -33.3237 253° West  Level FlightAware Approximate
11:35AM 54.4074 -33.5421 253° West  Level FlightAware Approximate
11:36AM 54.3670 -33.7600 252° West  Level FlightAware Approximate
11:37AM 54.3261 -33.9775 252° West  Level FlightAware Approximate
11:38AM 54.2849 -34.1946 252° West  Level FlightAware Approximate
11:39AM 54.2433 -34.4112 252° West  Level FlightAware Approximate
11:40AM 54.2013 -34.6274 252° West  Level FlightAware Approximate
11:41AM 54.1589 -34.8432 252° West  Level FlightAware Approximate
11:42AM 54.1161 -35.0585 251° West  Level FlightAware Approximate
11:43AM 54.0730 -35.2734 251° West  Level FlightAware Approximate
11:44AM 54.0294 -35.4878 251° West  Level FlightAware Approximate
11:45AM 53.9855 -35.7018 251° West  Level FlightAware Approximate
11:46AM 53.9412 -35.9153 251° West  Level FlightAware Approximate
11:47AM 53.8965 -36.1283 250° West  Level FlightAware Approximate
11:48AM 53.8515 -36.3410 250° West  Level FlightAware Approximate
11:49AM 53.8061 -36.5531 250° West  Level FlightAware Approximate
11:50AM 53.7603 -36.7648 250° West  Level FlightAware Approximate
11:51AM 53.7141 -36.9760 250° West  Level FlightAware Approximate
11:52AM 53.6675 -37.1868 250° West  Level FlightAware Approximate
11:53AM 53.6206 -37.3970 249° West  Level FlightAware Approximate
11:54AM 53.5733 -37.6069 249° West  Level FlightAware Approximate
11:55AM 53.5257 -37.8162 249° West  Level FlightAware Approximate
11:56AM 53.4777 -38.0251 249° West  Level FlightAware Approximate
11:57AM 53.4293 -38.2335 249° West  Level FlightAware Approximate
11:58AM 53.3806 -38.4414 249° West  Level FlightAware Approximate
11:59AM 53.3315 -38.6489 248° West  Level FlightAware Approximate
12:00PM 53.2820 -38.8559 248° West  Level FlightAware Approximate
12:01PM 53.2322 -39.0623 248° West  Level FlightAware Approximate
12:02PM 53.1820 -39.2683 248° West  Level FlightAware Approximate
12:03PM 53.1315 -39.4739 248° West  Level FlightAware Approximate
12:04PM 53.0806 -39.6789 248° West  Level FlightAware Approximate
12:05PM 53.0294 -39.8835 247° West  Level FlightAware Approximate
12:06PM 52.9786 -40.0881 248° West  Level FlightAware Approximate
12:07PM 52.9287 -40.2930 248° West  Level FlightAware Approximate
12:08PM 52.8783 -40.4975 248° West  Level FlightAware Approximate
12:09PM 52.8277 -40.7015 248° West  Level FlightAware Approximate
12:10PM 52.7766 -40.9050 248° West  Level FlightAware Approximate
12:11PM 52.7253 -41.1080 247° West  Level FlightAware Approximate
12:12PM 52.6735 -41.3106 247° West  Level FlightAware Approximate
12:13PM 52.6215 -41.5126 247° West  Level FlightAware Approximate
12:14PM 52.5691 -41.7142 247° West  Level FlightAware Approximate
12:15PM 52.5163 -41.9153 247° West  Level FlightAware Approximate
12:16PM 52.4632 -42.1160 247° West  Level FlightAware Approximate
12:17PM 52.4098 -42.3161 246° West  Level FlightAware Approximate
12:18PM 52.3560 -42.5157 246° West  Level FlightAware Approximate
12:19PM 52.3019 -42.7149 246° West  Level FlightAware Approximate
12:20PM 52.2475 -42.9136 246° West  Level FlightAware Approximate
12:21PM 52.1927 -43.1118 246° West  Level FlightAware Approximate
12:22PM 52.1376 -43.3095 246° West  Level FlightAware Approximate
12:23PM 52.0822 -43.5067 245° Southwest  Level FlightAware Approximate
12:24PM 52.0264 -43.7034 245° Southwest  Level FlightAware Approximate
12:25PM 51.9703 -43.8996 245° Southwest  Level FlightAware Approximate
12:26PM 51.9139 -44.0953 245° Southwest  Level FlightAware Approximate
12:27PM 51.8572 -44.2906 245° Southwest  Level FlightAware Approximate
12:28PM 51.8002 -44.4853 245° Southwest  Level FlightAware Approximate
12:29PM 51.7428 -44.6796 245° Southwest  Level FlightAware Approximate
12:30PM 51.6851 -44.8733 244° Southwest  Level FlightAware Approximate
12:31PM 51.6271 -45.0666 244° Southwest  Level FlightAware Approximate
12:32PM 51.5687 -45.2594 244° Southwest  Level FlightAware Approximate
12:33PM 51.5101 -45.4516 244° Southwest  Level FlightAware Approximate
12:34PM 51.4511 -45.6434 244° Southwest  Level FlightAware Approximate
12:35PM 51.3919 -45.8347 244° Southwest  Level FlightAware Approximate
12:36PM 51.3323 -46.0255 244° Southwest  Level FlightAware Approximate
12:37PM 51.2724 -46.2158 243° Southwest  Level FlightAware Approximate
12:38PM 51.2122 -46.4056 243° Southwest  Level FlightAware Approximate
12:39PM 51.1517 -46.5949 243° Southwest  Level FlightAware Approximate
12:40PM 51.0909 -46.7837 243° Southwest  Level FlightAware Approximate
12:41PM 51.0298 -46.9720 243° Southwest  Level FlightAware Approximate
12:42PM 50.9684 -47.1598 243° Southwest  Level FlightAware Approximate
12:43PM 50.9067 -47.3471 242° Southwest  Level FlightAware Approximate
12:44PM 50.8447 -47.5339 242° Southwest  Level FlightAware Approximate
12:45PM 50.7823 -47.7202 242° Southwest  Level FlightAware Approximate
12:46PM 50.7197 -47.9060 242° Southwest  Level FlightAware Approximate
12:47PM 50.6568 -48.0914 242° Southwest  Level FlightAware Approximate
12:48PM 50.5936 -48.2762 242° Southwest  Level FlightAware Approximate
12:49PM 50.5302 -48.4605 242° Southwest  Level FlightAware Approximate
12:50PM 50.4664 -48.6443 241° Southwest  Level FlightAware Approximate
12:51PM 50.4023 -48.8277 241° Southwest  Level FlightAware Approximate
12:52PM 50.3380 -49.0105 241° Southwest  Level FlightAware Approximate
12:53PM 50.2733 -49.1928 241° Southwest  Level FlightAware Approximate
12:54PM 50.2084 -49.3747 241° Southwest  Level FlightAware Approximate
12:55PM 50.1432 -49.5560 241° Southwest  Level FlightAware Approximate
12:56PM 50.0830 -49.7413 244° Southwest  Level FlightAware Approximate
12:57PM 50.0235 -49.9269 244° Southwest  Level FlightAware Approximate
12:57PM 50.0000 -49.9333 252° West 450 518 36,000  Level Gander Center
12:58PM 49.9554 -50.1045 237° Southwest  Level FlightAware Approximate
12:59PM 49.9151 -50.2980 252° West  Level FlightAware Approximate
01:00PM 49.8744 -50.4913 252° West  Level FlightAware Approximate
01:01PM 49.8333 -50.6843 252° West  Level FlightAware Approximate
01:02PM 49.7920 -50.8770 252° West  Level FlightAware Approximate
01:03PM 49.7540 -51.0860 252° West 448 516 36,000  Level FlightAware
01:04PM 49.7240 -51.2070 249° West 447 514 36,000  Level FlightAware
01:04PM 49.7000 -51.3100 250° West 447 514 36,000  Level FlightAware
01:05PM 49.6750 -51.4140 250° West 448 516 36,000  Level FlightAware
01:05PM 49.6490 -51.5200 249° West 447 514 36,000  Level FlightAware
01:06PM 49.6240 -51.6230 249° West 447 514 36,000  Level FlightAware
01:07PM 49.5990 -51.7290 250° West 447 514 36,000  Level FlightAware
01:07PM 49.5730 -51.8330 249° West 446 513 36,000  Level FlightAware
01:08PM 49.5450 -51.9480 249° West 446 513 36,000  Level FlightAware
01:08PM 49.5220 -52.0390 249° West 445 512 36,000  Level FlightAware
01:09PM 49.4930 -52.1560 249° West 444 511 36,000  Level FlightAware
01:10PM 49.4710 -52.2430 249° West 443 510 36,000  Level FlightAware
01:10PM 49.4460 -52.3450 249° West 443 510 36,000  Level FlightAware
01:11PM 49.4230 -52.4350 249° West 442 509 36,000  Level FlightAware
01:11PM 49.3940 -52.5490 249° West 442 509 36,000  Level FlightAware
01:12PM 49.3690 -52.6460 248° West 441 507 36,000  Level FlightAware
01:12PM 49.3410 -52.7560 249° West 440 506 36,000  Level FlightAware
01:13PM 49.3150 -52.8560 248° West 440 506 36,000  Level FlightAware
01:14PM 49.2890 -52.9570 248° West 440 506 36,000  Level FlightAware
01:14PM 49.2630 -53.0600 249° West 439 505 36,000  Level FlightAware
01:15PM 49.2370 -53.1590 248° West 438 504 36,000  Level FlightAware
01:15PM 49.2070 -53.2720 248° West 437 503 36,000  Level FlightAware
01:16PM 49.1810 -53.3720 248° West 436 502 36,000  Level FlightAware
01:17PM 49.1590 -53.4560 248° West 436 502 36,000  Level FlightAware
01:17PM 49.1280 -53.5730 248° West 437 503 36,000  Level FlightAware
01:18PM 49.0930 -53.7030 248° West 437 503 36,000  Level FlightAware
01:19PM 49.0670 -53.8020 248° West 436 502 36,000  Level FlightAware
01:19PM 49.0410 -53.8980 248° West 435 501 36,000  Level FlightAware
01:20PM 49.0060 -54.0280 248° West 434 499 36,000  Level FlightAware
01:20PM 48.9830 -54.1130 248° West 434 499 36,000  Level FlightAware
01:21PM 48.9530 -54.2240 248° West 433 498 36,000  Level FlightAware
01:22PM 48.9300 -54.3080 247° West 432 497 36,000  Level FlightAware
01:22PM 48.8990 -54.4200 247° West 432 497 36,000  Level FlightAware
01:23PM 48.8760 -54.5020 247° West 432 497 36,000  Level FlightAware
01:23PM 48.8490 -54.6020 248° West 431 496 36,000  Level FlightAware
01:24PM 48.8180 -54.7140 247° West 429 494 36,000  Level FlightAware
01:25PM 48.7910 -54.8100 247° West 429 494 36,000  Level FlightAware
01:25PM 48.7640 -54.9050 247° West 429 494 36,000  Level FlightAware
01:26PM 48.7400 -54.9890 247° West 428 493 36,000  Level FlightAware
01:26PM 48.7100 -55.0960 247° West 426 490 36,000  Level FlightAware
01:27PM 48.6820 -55.1930 246° West 426 490 36,000  Level FlightAware
01:27PM 48.6650 -55.2520 246° West 426 490 36,000  Level FlightAware
01:28PM 48.6320 -55.3690 247° West 427 491 36,000  Level FlightAware
01:28PM 48.6080 -55.4530 247° West 427 491 36,000  Level FlightAware
01:29PM 48.5810 -55.5470 247° West 427 491 36,000  Level FlightAware
01:30PM 48.5530 -55.6420 246° West 428 493 36,000  Level FlightAware
01:30PM 48.5210 -55.7530 247° West 426 490 36,000  Level FlightAware
01:31PM 48.4900 -55.8580 246° West 426 490 36,000  Level FlightAware
01:32PM 48.4620 -55.9560 247° West 426 490 36,000  Level FlightAware
01:32PM 48.4340 -56.0520 246° West 427 491 36,000  Level FlightAware
01:33PM 48.4060 -56.1450 246° West 428 493 36,000  Level FlightAware
01:33PM 48.3770 -56.2420 246° West 428 493 36,000  Level FlightAware
01:34PM 48.3500 -56.3350 246° West 426 490 36,000  Level FlightAware
01:34PM 48.3210 -56.4290 245° Southwest 426 490 36,000  Level FlightAware
01:35PM 48.2930 -56.5250 246° West 426 490 36,000  Level FlightAware
01:36PM 48.2640 -56.6190 245° Southwest 425 489 36,000  Level FlightAware
01:36PM 48.2380 -56.7070 246° West 424 488 36,000  Level FlightAware
01:37PM 48.2080 -56.8040 245° Southwest 425 489 36,000  Level FlightAware
01:37PM 48.1800 -56.8990 246° West 426 490 36,000  Level FlightAware
01:38PM 48.1520 -56.9890 245° Southwest 425 489 36,000  Level FlightAware
01:38PM 48.1280 -57.0680 246° West 425 489 36,000  Level FlightAware
01:39PM 48.0940 -57.1780 245° Southwest 425 489 36,000  Level FlightAware
01:40PM 48.0590 -57.2920 245° Southwest 421 484 36,000  Level FlightAware
01:40PM 48.0320 -57.3770 245° Southwest 419 482 36,000  Level FlightAware
01:41PM 48.0000 -57.4800 245° Southwest 415 478 36,000  Level FlightAware
01:42PM 47.9750 -57.5580 244° Southwest 413 475 36,000  Level FlightAware
01:42PM 47.9480 -57.6450 245° Southwest 409 471 36,000  Level FlightAware
01:43PM 47.9160 -57.7480 245° Southwest 407 468 36,000  Level FlightAware
01:43PM 47.8910 -57.8250 244° Southwest 405 466 36,000  Level FlightAware
01:44PM 47.8630 -57.9140 245° Southwest 403 464 36,000  Level FlightAware
01:44PM 47.8370 -57.9950 244° Southwest 403 464 36,000  Level FlightAware
01:45PM 47.8070 -58.0890 245° Southwest 403 464 36,000  Level FlightAware
01:46PM 47.7830 -58.1630 244° Southwest 400 460 36,000  Level FlightAware
01:46PM 47.7520 -58.2600 245° Southwest 400 460 36,000  Level FlightAware
01:47PM 47.7240 -58.3490 245° Southwest 399 459 36,000  Level FlightAware
01:48PM 47.6960 -58.4340 244° Southwest 399 459 36,000  Level FlightAware
01:48PM 47.6620 -58.5400 245° Southwest 401 461 36,000  Level FlightAware
01:49PM 47.6300 -58.6380 244° Southwest 402 463 36,000  Level FlightAware
01:49PM 47.5990 -58.7310 244° Southwest 403 464 36,000  Level FlightAware
01:50PM 47.5730 -58.8090 244° Southwest 403 464 36,000  Level FlightAware
01:51PM 47.5500 -58.8810 245° Southwest 403 464 36,000  Level FlightAware
01:51PM 47.5090 -59.0050 244° Southwest 402 463 36,000  Level FlightAware
01:52PM 47.4800 -59.0910 244° Southwest 402 463 36,000  Level FlightAware
01:52PM 47.4550 -59.1660 244° Southwest 400 460 36,000  Level FlightAware
01:53PM 47.4240 -59.2600 244° Southwest 399 459 36,000  Level FlightAware
01:53PM 47.3980 -59.3370 244° Southwest 398 458 36,000  Level FlightAware
01:54PM 47.3690 -59.4240 244° Southwest 398 458 36,000  Level FlightAware
01:55PM 47.3380 -59.5140 243° Southwest 399 459 36,000  Level FlightAware
01:55PM 47.3100 -59.5980 244° Southwest 401 461 36,000  Level FlightAware
01:56PM 47.2830 -59.6750 243° Southwest 400 460 36,000  Level FlightAware
01:56PM 47.2510 -59.7710 244° Southwest 401 461 36,000  Level FlightAware
01:57PM 47.2240 -59.8490 243° Southwest 402 463 36,000  Level FlightAware
01:58PM 47.1950 -59.9350 244° Southwest 403 464 36,000  Level FlightAware
01:58PM 47.1620 -60.0290 243° Southwest 403 464 36,000  Level FlightAware
01:59PM 47.1360 -60.1050 243° Southwest 402 463 36,000  Level FlightAware
01:59PM 47.1070 -60.1890 243° Southwest 401 461 36,000  Level FlightAware
02:00PM 47.0750 -60.2800 243° Southwest 400 460 36,000  Level FlightAware
02:00PM 47.0480 -60.3580 243° Southwest 398 458 36,000  Level FlightAware
02:01PM 47.0180 -60.4430 243° Southwest 399 459 36,000  Level FlightAware
02:02PM 46.9870 -60.5310 243° Southwest 400 460 36,000  Level FlightAware
02:02PM 46.9600 -60.6070 243° Southwest 400 460 36,000  Level FlightAware
02:03PM 46.9280 -60.6990 243° Southwest 399 459 36,000  Level FlightAware
02:03PM 46.9020 -60.7720 242° Southwest 399 459 36,000  Level FlightAware
02:04PM 46.8680 -60.8680 243° Southwest 398 458 36,000  Level FlightAware
02:05PM 46.8370 -60.9550 243° Southwest 398 458 36,000  Level FlightAware
02:05PM 46.8100 -61.0300 242° Southwest 398 458 36,000  Level FlightAware
02:06PM 46.7770 -61.1210 242° Southwest 397 457 36,000  Level FlightAware
02:06PM 46.7490 -61.1980 242° Southwest 397 457 36,000  Level FlightAware
02:07PM 46.7190 -61.2820 243° Southwest 397 457 36,000  Level FlightAware
02:07PM 46.6900 -61.3620 242° Southwest 396 456 36,000  Level FlightAware
02:08PM 46.6600 -61.4450 242° Southwest 396 456 36,000  Level FlightAware
02:09PM 46.6310 -61.5250 242° Southwest 396 456 36,000  Level FlightAware
02:09PM 46.6010 -61.6070 242° Southwest 397 457 36,000  Level FlightAware
02:10PM 46.5700 -61.6910 242° Southwest 398 458 36,000  Level FlightAware
02:10PM 46.5390 -61.7750 242° Southwest 399 459 36,000  Level FlightAware
02:11PM 46.5100 -61.8520 241° Southwest 400 460 36,000  Level FlightAware
02:12PM 46.4840 -61.9230 242° Southwest 401 461 36,000  Level FlightAware
02:12PM 46.4480 -62.0210 242° Southwest 404 465 36,000  Level FlightAware
02:13PM 46.4180 -62.0990 241° Southwest 403 464 36,000  Level FlightAware
02:13PM 46.3880 -62.1820 242° Southwest 404 465 36,000  Level FlightAware
02:14PM 46.3530 -62.2740 241° Southwest 405 466 36,000  Level FlightAware
02:14PM 46.3240 -62.3520 242° Southwest 404 465 36,000  Level FlightAware
02:15PM 46.2910 -62.4390 241° Southwest 405 466 36,000  Level FlightAware
02:16PM 46.2630 -62.5130 241° Southwest 405 466 36,000  Level FlightAware
02:16PM 46.2270 -62.6080 241° Southwest 405 466 36,000  Level FlightAware
02:17PM 46.1970 -62.6880 242° Southwest 405 466 36,000  Level FlightAware
02:17PM 46.1640 -62.7740 241° Southwest 406 467 36,000  Level FlightAware
02:18PM 46.1330 -62.8530 241° Southwest 407 468 36,000  Level FlightAware
02:19PM 46.1020 -62.9340 241° Southwest 409 471 36,000  Level FlightAware
02:19PM 46.0670 -63.0250 241° Southwest 410 472 36,000  Level FlightAware
02:20PM 46.0370 -63.1040 241° Southwest 410 472 36,000  Level FlightAware
02:20PM 46.0090 -63.1770 241° Southwest 410 472 36,000  Level FlightAware
02:21PM 45.9800 -63.2520 241° Southwest 410 472 36,000  Level FlightAware
02:22PM 45.9520 -63.3250 241° Southwest 410 472 36,000  Level FlightAware
02:22PM 45.9240 -63.3980 241° Southwest 410 472 36,000  Level FlightAware
02:23PM 45.8950 -63.4710 240° Southwest 410 472 36,000  Level FlightAware
02:24PM 45.8670 -63.5440 241° Southwest 410 472 36,000  Level FlightAware
02:24PM 45.8040 -63.6980 240° Southwest 419 482 36,000  Level FlightAware
02:24PM 45.7741 -63.7738 240° Southwest 420 483 36,000  Level FlightAware ADS-B (CYQI)
02:25PM 45.7360 -63.8680 240° Southwest 421 484 36,000  Level FlightAware
02:26PM 45.7020 -63.9560 241° Southwest 422 486 36,000  Level FlightAware
02:26PM 45.6680 -64.0400 240° Southwest 422 486 36,000  Level FlightAware
02:27PM 45.6300 -64.1340 240° Southwest 423 487 36,000  Level FlightAware
02:28PM 45.5770 -64.2670 240° Southwest 423 487 36,000  Level FlightAware
02:29PM 45.5400 -64.3560 239° Southwest 424 488 36,000  Level FlightAware
02:29PM 45.5040 -64.4450 240° Southwest 424 488 36,000  Level FlightAware
02:30PM 45.4670 -64.5370 240° Southwest 424 488 36,000  Level FlightAware
02:31PM 45.4280 -64.6330 240° Southwest 423 487 36,000  Level FlightAware
02:31PM 45.3770 -64.7560 239° Southwest 424 488 36,000  Level FlightAware
02:32PM 45.3460 -64.8320 240° Southwest 424 488 36,000  Level FlightAware
02:33PM 45.2950 -64.9550 240° Southwest 426 490 36,000  Level FlightAware
02:33PM 45.2640 -65.0300 240° Southwest 426 490 36,000  Level FlightAware
02:34PM 45.2210 -65.1340 240° Southwest 423 487 36,000  Level FlightAware
02:34PM 45.1840 -65.2220 239° Southwest 423 487 36,000  Level FlightAware
02:35PM 45.1510 -65.3020 240° Southwest 422 486 36,000  Level FlightAware
02:36PM 45.1190 -65.3770 239° Southwest 421 484 36,000  Level FlightAware
02:36PM 45.0790 -65.4720 239° Southwest 423 487 36,000  Level FlightAware
02:37PM 45.0440 -65.5550 239° Southwest 422 486 36,000  Level FlightAware
02:37PM 45.0120 -65.6300 239° Southwest 421 484 36,000  Level FlightAware
02:38PM 44.9770 -65.7120 239° Southwest 421 484 36,000  Level FlightAware
02:39PM 44.9360 -65.8090 239° Southwest 424 488 36,000  Level FlightAware
02:39PM 44.9010 -65.8900 239° Southwest 424 488 36,000  Level FlightAware
02:40PM 44.8700 -65.9640 239° Southwest 424 488 36,000  Level FlightAware
02:40PM 44.8340 -66.0470 239° Southwest 424 488 36,000  Level FlightAware
02:41PM 44.7980 -66.1310 239° Southwest 428 493 36,000  Level FlightAware
02:41PM 44.7570 -66.2240 238° Southwest 427 491 36,000  Level FlightAware
02:42PM 44.7260 -66.2970 239° Southwest 424 488 36,000  Level FlightAware
02:43PM 44.6800 -66.4030 239° Southwest 430 495 36,000  Level FlightAware
02:43PM 44.6430 -66.4860 238° Southwest 431 496 36,000  Level FlightAware
02:44PM 44.6080 -66.5660 238° Southwest 432 497 36,000  Level FlightAware
02:44PM 44.5710 -66.6520 239° Southwest 433 498 36,000  Level FlightAware
02:45PM 44.5390 -66.7230 238° Southwest 435 501 36,000  Level FlightAware
02:46PM 44.5020 -66.8090 239° Southwest 437 503 36,000  Level FlightAware
02:46PM 44.4650 -66.8920 238° Southwest 435 501 36,000  Level FlightAware
02:47PM 44.4250 -66.9760 236° Southwest 432 497 36,000  Level FlightAware
02:47PM 44.5378 -66.7266 58° Northeast 435 501 36,000  Level FlightAware ADS-B (CYSG)
02:48PM 44.3350 -67.1100 234° Southwest 433 498 36,000  Level FlightAware
02:48PM 44.2790 -67.1880 225° Southwest 432 497 36,000  Level FlightAware
02:49PM 44.2640 -67.2095 226° Southwest 433 498 36,000  Level FlightAware ADS-B (CYSG)
02:50PM 44.1800 -67.3250 225° Southwest 431 496 36,000  Level FlightAware
02:50PM 44.1360 -67.3840 224° Southwest 431 496 36,000  Level FlightAware
02:51PM 44.0800 -67.4610 225° Southwest 431 496 36,000  Level FlightAware
02:51PM 44.0300 -67.5290 224° Southwest 432 497 36,000  Level FlightAware
02:52PM 43.9730 -67.6060 224° Southwest 432 497 36,000  Level FlightAware
02:53PM 43.9220 -67.6740 224° Southwest 432 497 36,000  Level FlightAware
02:53PM 43.8730 -67.7410 225° Southwest 427 491 36,000  Level FlightAware
02:54PM 43.8220 -67.8090 224° Southwest 432 497 36,000  Level FlightAware
02:54PM 43.7720 -67.8750 224° Southwest 432 497 36,000  Level FlightAware
02:55PM 43.7210 -67.9430 224° Southwest 426 490 36,000  Level FlightAware
02:56PM 43.6730 -68.0080 224° Southwest 431 496 36,000  Level FlightAware
02:56PM 43.6230 -68.0740 224° Southwest 431 496 36,000  Level FlightAware
02:57PM 43.5720 -68.1410 224° Southwest 425 489 36,000  Level FlightAware
02:57PM 43.5300 -68.1970 224° Southwest 427 491 36,000  Level FlightAware
02:58PM 43.4750 -59.6990 88° East 36,000  Level FlightAware
03:01PM 43.2350 -68.5840 271° West 36,000  Level FlightAware
03:01PM 43.2054 -68.6228 224° Southwest 436 502 36,000  Level FlightAware ADS-B (CYQI)
03:01PM 43.1573 -68.6852 223° Southwest 437 503 36,000  Level FlightAware ADS-B (CYQI)
03:02PM 43.1127 -68.7430 223° Southwest 437 503 36,000  Level FlightAware ADS-B (CYQI)
03:03PM 43.0590 -68.8125 223° Southwest 437 503 36,000  Level FlightAware ADS-B (CYQI)
03:03PM 42.9845 -68.9085 223° Southwest 437 503 36,000  Level FlightAware ADS-B (CYQI)
03:04PM 42.9369 -68.9696 223° Southwest 437 503 36,000  Level FlightAware ADS-B (CYQI)
03:04PM 42.8924 -69.0266 223° Southwest 438 504 36,000  Level FlightAware ADS-B (CYQI)
03:05PM 42.8342 -69.1011 223° Southwest 438 504 36,000  Level FlightAware ADS-B (CYQI)
03:06PM 42.7800 -69.1710 223° Southwest 438 504 36,000  Level FlightAware
03:06PM 42.7416 -69.2194 223° Southwest 440 506 36,000  Level FlightAware ADS-B (CYQI)
03:07PM 42.6831 -69.2938 223° Southwest 439 505 36,000  Level FlightAware ADS-B (CYQI)
03:07PM 42.6160 -69.3788 223° Southwest 438 504 36,000  Level FlightAware ADS-B (CYQI)
03:08PM 42.5380 -69.4770 223° Southwest 437 503 36,000  Level FlightAware
03:09PM 42.4790 -69.5520 223° Southwest 437 503 36,000  Level FlightAware
03:09PM 42.4503 -69.5875 222° Southwest 438 504 36,000  Level FlightAware ADS-B (KBOS)
03:10PM 42.3558 -69.7060 223° Southwest 437 503 36,000  Level FlightAware ADS-B (CYQI)
03:11PM 42.3140 -69.7580 223° Southwest 436 502 36,000  Level FlightAware
03:12PM 42.2620 -69.8230 223° Southwest 436 502 36,000  Level FlightAware
03:12PM 42.2110 -69.8870 223° Southwest 437 503 36,000  Level FlightAware
03:13PM 42.1570 -69.9530 222° Southwest 438 504 36,000  Level FlightAware
03:13PM 42.1057 -70.0169 223° Southwest 439 505 36,000  Level FlightAware ADS-B (KBOS)
03:14PM 42.0509 -70.0846 223° Southwest 439 505 36,000  Level FlightAware ADS-B (KBOS)
03:14PM 42.0060 -70.1400 223° Southwest 439 505 36,000  Level FlightAware
03:15PM 41.9986 -70.1490 222° Southwest 440 506 36,000  Level FlightAware ADS-B (KBOS)
03:15PM 41.9530 -70.2060 223° Southwest 440 506 36,000  Level FlightAware
03:15PM 41.9236 -70.2430 223° Southwest 445 512 36,000  Level FlightAware ADS-B (KBOS)
03:16PM 41.8746 -70.3203 230° Southwest 449 517 36,000  Level FlightAware ADS-B (KBOS)
03:17PM 41.8289 -70.4010 233° Southwest 449 517 36,000  Level FlightAware ADS-B (KBOS)
03:17PM 41.7635 -70.5145 232° Southwest 449 517 36,000  Level FlightAware ADS-B (KBOS)
03:18PM 41.7152 -70.5976 232° Southwest 450 518 36,000  Level FlightAware ADS-B (KBOS)
03:19PM 41.6749 -70.6668 232° Southwest 450 518 36,000  Level FlightAware ADS-B (KBOS)
03:19PM 41.6240 -70.7540 232° Southwest 450 518 36,000  Level FlightAware
03:20PM 41.5760 -70.8350 232° Southwest 447 514 36,000  Level FlightAware
03:20PM 41.5370 -70.9010 232° Southwest 450 518 36,000  Level FlightAware
03:21PM 41.4930 -70.9770 232° Southwest 447 514 36,000  Level FlightAware
03:22PM 41.4400 -71.0660 232° Southwest 446 513 36,000  Level FlightAware
03:22PM 41.3960 -71.1410 232° Southwest 446 513 36,000  Level FlightAware
03:23PM 41.3500 -71.2180 232° Southwest 446 513 36,000  Level FlightAware
03:23PM 41.3120 -71.2830 232° Southwest 447 514 36,000  Level FlightAware
03:24PM 41.2610 -71.3670 231° Southwest 446 513 36,000  Level FlightAware
03:24PM 41.2200 -71.4360 232° Southwest 452 520 36,000  Level FlightAware
03:25PM 41.1680 -71.5220 231° Southwest 453 521 36,000  Level FlightAware
03:26PM 41.1150 -71.6110 232° Southwest 454 522 36,000  Level FlightAware
03:26PM 41.0690 -71.6870 231° Southwest 453 521 36,000  Level FlightAware
03:27PM 41.0250 -71.7610 232° Southwest 453 521 36,000  Level FlightAware
03:28PM 40.9770 -71.8380 230° Southwest 454 522 36,000  Level FlightAware
03:28PM 40.9360 -71.9060 231° Southwest 448 516 36,000  Level FlightAware
03:29PM 40.8910 -71.9810 232° Southwest 450 518 36,000  Level FlightAware
03:29PM 40.8400 -72.0640 231° Southwest 450 518 36,000  Level FlightAware
03:30PM 40.7930 -72.1410 231° Southwest 450 518 36,000  Level FlightAware
03:30PM 40.7500 -72.2110 231° Southwest 450 518 36,000  Level FlightAware
03:31PM 40.6960 -72.2940 229° Southwest 448 516 36,000  Level FlightAware
03:32PM 40.6490 -72.3540 224° Southwest 451 519 36,000  Level FlightAware
03:32PM 40.5970 -72.4220 225° Southwest 450 518 36,000  Level FlightAware
03:33PM 40.5450 -72.4890 224° Southwest 450 518 36,000  Level FlightAware
03:33PM 40.4930 -72.5570 225° Southwest 452 520 36,000  Level FlightAware
03:34PM 40.4370 -72.6300 225° Southwest 451 519 36,000  Level FlightAware
03:35PM 40.3880 -72.6930 224° Southwest 448 516 36,000 240 Level FlightAware
03:35PM 40.3360 -72.7600 224° Southwest 456 525 36,300 540 Climbing FlightAware
03:36PM 40.2955 -72.8120 224° Southwest 463 533 36,600 660 Climbing FlightAware ADS-B (KSNC)
03:36PM 40.2483 -72.8724 224° Southwest 469 540 37,000 840 Climbing FlightAware ADS-B (KSNC)
03:37PM 40.1896 -72.9476 224° Southwest 470 541 37,600 840 Climbing FlightAware ADS-B (KSNC)
03:37PM 40.1349 -73.0174 224° Southwest 474 545 38,000 300 Climbing FlightAware ADS-B (KSNC)
03:38PM 40.0670 -73.1037 224° Southwest 476 548 38,000  Level FlightAware ADS-B (KSNC)
03:39PM 40.0029 -73.1849 224° Southwest 474 545 38,000  Level FlightAware ADS-B (KSNC)
03:39PM 39.9456 -73.2576 224° Southwest 471 542 38,000  Level FlightAware ADS-B (KSNC)
03:40PM 39.9030 -73.3116 224° Southwest 472 543 38,000  Level FlightAware ADS-B (KSNC)
03:40PM 39.8390 -73.3920 224° Southwest 470 541 38,000  Level FlightAware
03:41PM 39.7815 -73.4648 224° Southwest 470 541 38,000  Level FlightAware ADS-B (KSNC)
03:42PM 39.7240 -73.5370 224° Southwest 468 539 38,000  Level FlightAware
03:42PM 39.7130 -73.5507 224° Southwest 468 539 38,000  Level FlightAware ADS-B (KSNC)
03:43PM 39.6180 -73.6700 224° Southwest 462 532 38,000  Level FlightAware
03:43PM 39.5614 -73.7398 224° Southwest 460 529 38,000  Level FlightAware ADS-B (KSNC)
03:44PM 39.5140 -73.8000 224° Southwest 459 528 38,000  Level FlightAware
03:45PM 39.4620 -73.8630 223° Southwest 460 529 38,000  Level FlightAware
03:45PM 39.4050 -73.9340 224° Southwest 460 529 38,000  Level FlightAware
03:46PM 39.3540 -73.9980 224° Southwest 459 528 38,000  Level FlightAware
03:46PM 39.2940 -74.0710 223° Southwest 456 525 38,000  Level FlightAware
03:47PM 39.2450 -74.1320 224° Southwest 456 525 38,000  Level FlightAware
03:48PM 39.1820 -74.2080 223° Southwest 457 526 38,000  Level FlightAware
03:48PM 39.1260 -74.2770 224° Southwest 459 528 38,000  Level FlightAware
03:49PM 39.0760 -74.3380 223° Southwest 461 531 38,000  Level FlightAware
03:49PM 39.0100 -74.4190 224° Southwest 461 531 38,000  Level FlightAware
03:50PM 38.9580 -74.4820 223° Southwest 459 528 38,000  Level FlightAware
03:51PM 38.9040 -74.5470 223° Southwest 457 526 38,000  Level FlightAware
03:51PM 38.8430 -74.6210 223° Southwest 454 522 38,000  Level FlightAware
03:52PM 38.7870 -74.6880 223° Southwest 454 522 38,000  Level FlightAware
03:53PM 38.7230 -74.7620 222° Southwest 452 520 38,000  Level FlightAware
03:53PM 38.6640 -74.8240 219° Southwest 452 520 38,000  Level FlightAware
03:54PM 38.6090 -74.8830 220° Southwest 454 522 38,000  Level FlightAware
03:54PM 38.5550 -74.9410 220° Southwest 457 526 38,000  Level FlightAware
03:55PM 38.4970 -75.0020 219° Southwest 458 527 38,000  Level FlightAware
03:55PM 38.4450 -75.0570 220° Southwest 463 533 38,000  Level FlightAware
03:56PM 38.3900 -75.1140 219° Southwest 463 533 38,000  Level FlightAware
03:57PM 38.3250 -75.1840 220° Southwest 468 539 38,000  Level FlightAware
03:57PM 38.2520 -75.2600 219° Southwest 468 539 38,000  Level FlightAware
03:58PM 38.1880 -75.3270 219° Southwest 468 539 38,000  Level FlightAware
03:59PM 38.1360 -75.3810 219° Southwest 467 537 38,000  Level FlightAware
03:59PM 38.0620 -75.4570 219° Southwest 467 537 38,000  Level FlightAware
04:00PM 37.9860 -75.5150 211° Southwest 468 539 38,000  Level FlightAware
04:01PM 37.9190 -75.5680 212° Southwest 467 537 38,000  Level FlightAware
04:01PM 37.8550 -75.6170 211° Southwest 467 537 38,000  Level FlightAware
04:02PM 37.7770 -75.6750 210° Southwest 467 537 38,000  Level FlightAware
04:02PM 37.7180 -75.7180 210° Southwest 467 537 38,000  Level FlightAware
04:03PM 37.6640 -75.7570 210° Southwest 467 537 38,000  Level FlightAware
04:04PM 37.6100 -75.7970 210° Southwest 467 537 38,000  Level FlightAware
04:04PM 37.5530 -75.8380 210° Southwest 467 537 38,000  Level FlightAware
04:05PM 37.4050 -75.9260 205° Southwest 464 534 38,000  Level FlightAware
04:06PM 37.3500 -75.9560 203° Southwest 464 534 38,000  Level FlightAware
04:06PM 37.2720 -75.9990 204° Southwest 464 534 38,000  Level FlightAware
04:07PM 37.2030 -76.0350 203° Southwest 464 534 38,000  Level FlightAware
04:08PM 37.1290 -76.0740 203° Southwest 464 534 38,000  Level FlightAware
04:08PM 37.0460 -76.1150 202° Southwest 467 537 38,000  Level FlightAware
04:09PM 36.9550 -76.1570 200° South 469 540 38,000  Level FlightAware
04:10PM 36.8910 -76.1860 200° South 469 540 38,000  Level FlightAware
04:10PM 36.8320 -76.2130 200° South 469 540 38,000  Level FlightAware
04:11PM 36.7730 -76.2400 200° South 469 540 38,000  Level FlightAware
04:11PM 36.6860 -76.2790 200° South 469 540 38,000  Level FlightAware
04:12PM 36.5680 -76.3390 202° Southwest 468 539 38,000  Level FlightAware
04:13PM 36.4770 -76.3810 200° South 468 539 38,000  Level FlightAware
04:13PM 36.4060 -76.4140 201° Southwest 468 539 38,000  Level FlightAware
04:14PM 36.3370 -76.4460 200° South 468 539 38,000  Level FlightAware
04:15PM 36.2560 -76.4840 201° Southwest 468 539 38,000  Level FlightAware
04:15PM 36.1830 -76.5180 201° Southwest 461 531 38,000  Level FlightAware
04:16PM 36.1140 -76.5500 201° Southwest 460 529 38,000  Level FlightAware
04:17PM 36.0240 -76.5900 200° South 467 537 38,000  Level FlightAware
04:17PM 35.9530 -76.6240 201° Southwest 466 536 38,000  Level FlightAware
04:18PM 35.8640 -76.6640 200° South 466 536 38,000  Level FlightAware
04:19PM 35.8020 -76.6920 200° South 466 536 38,000  Level FlightAware
04:19PM 35.7400 -76.7200 200° South 466 536 38,000  Level FlightAware
04:20PM 35.6760 -76.7480 200° South 466 536 38,000  Level FlightAware
04:20PM 35.6140 -76.7760 200° South 466 536 38,000  Level FlightAware
04:21PM 35.4970 -76.8320 201° Southwest 38,000  Level FlightAware
04:22PM 35.3950 -76.8780 200° South 463 533 38,000  Level FlightAware
04:22PM 35.3160 -76.9140 200° South 463 533 38,000  Level FlightAware
04:23PM 35.2630 -76.9370 200° South 463 533 38,000  Level FlightAware
04:23PM 35.1860 -76.9730 201° Southwest 463 533 38,000  Level FlightAware
04:24PM 35.1110 -77.0060 200° South 463 533 38,000  Level FlightAware
04:25PM 35.0480 -77.0350 201° Southwest 462 532 38,000  Level FlightAware
04:25PM 34.9640 -77.0720 200° South 460 529 38,000  Level FlightAware
04:26PM 34.9050 -77.0990 201° Southwest 460 529 38,000  Level FlightAware
04:27PM 34.8110 -77.1400 200° South 461 531 38,000  Level FlightAware
04:27PM 34.7460 -77.1700 201° Southwest 462 532 38,000  Level FlightAware
04:28PM 34.6890 -77.1950 200° South 462 532 38,000  Level FlightAware
04:29PM 34.6170 -77.2270 200° South 463 533 38,000  Level FlightAware
04:29PM 34.5390 -77.2610 200° South 464 534 38,000  Level FlightAware
04:30PM 34.4700 -77.2920 200° South 464 534 38,000  Level FlightAware
04:30PM 34.4020 -77.3220 200° South 463 533 38,000  Level FlightAware
04:31PM 34.3190 -77.3580 200° South 462 532 38,000  Level FlightAware
04:32PM 34.2600 -77.3840 200° South 461 531 38,000  Level FlightAware
04:32PM 34.1890 -77.4150 200° South 461 531 38,000  Level FlightAware
04:33PM 34.1160 -77.4480 201° Southwest 461 531 38,000  Level FlightAware
04:33PM 34.0550 -77.4740 199° South 462 532 38,000  Level FlightAware
04:34PM 33.9930 -77.5010 200° South 463 533 38,000  Level FlightAware
04:34PM 33.9080 -77.5380 200° South 462 532 38,000  Level FlightAware
04:35PM 33.8260 -77.5740 200° South 462 532 38,000  Level FlightAware
04:36PM 33.7670 -77.6000 200° South 462 532 38,000  Level FlightAware
04:36PM 33.6980 -77.6300 200° South 462 532 38,000  Level FlightAware
04:37PM 33.6390 -77.6550 199° South 462 532 38,000  Level FlightAware
04:37PM 33.5720 -77.6840 200° South 462 532 38,000  Level FlightAware
04:38PM 33.4950 -77.7170 200° South 462 532 38,000  Level FlightAware
04:39PM 33.4170 -77.7510 200° South 462 532 38,000  Level FlightAware
04:39PM 33.3550 -77.7770 199° South 462 532 38,000  Level FlightAware
04:40PM 33.2900 -77.8050 200° South 461 531 38,000  Level FlightAware
04:41PM 33.1950 -77.8460 200° South 459 528 38,000  Level FlightAware
04:41PM 33.1090 -77.8830 200° South 459 528 38,000  Level FlightAware
04:42PM 33.0480 -77.9100 200° South 459 528 38,000  Level FlightAware
04:43PM 32.9850 -77.9370 200° South 459 528 38,000  Level FlightAware
04:43PM 32.8200 -78.0060 199° South 451 519 38,000  Level FlightAware
04:44PM 32.7490 -78.0360 200° South 450 518 38,000  Level FlightAware
04:44PM 32.6770 -78.0660 199° South 450 518 38,000  Level FlightAware
04:45PM 32.6090 -78.0950 200° South 452 520 38,000  Level FlightAware
04:45PM 32.5580 -78.1170 200° South 452 520 38,000  Level FlightAware
04:46PM 32.4690 -78.1540 199° South 453 521 38,000  Level FlightAware
04:47PM 32.3950 -78.1850 199° South 453 521 38,000  Level FlightAware
04:47PM 32.3110 -78.2200 199° South 455 524 38,000  Level FlightAware
04:48PM 32.2440 -78.2490 200° South 456 525 38,000  Level FlightAware
04:48PM 32.1820 -78.2740 199° South 457 526 38,000  Level FlightAware
04:49PM 32.1070 -78.3060 200° South 457 526 38,000  Level FlightAware
04:50PM 32.0440 -78.3310 199° South 457 526 38,000  Level FlightAware
04:50PM 32.0390 -78.3330 199° South 457 526 38,000  Level FlightAware
04:51PM 31.9770 -78.3580 199° South 457 526 38,000  Level FlightAware
04:52PM 31.9160 -78.3830 199° South 457 526 38,000  Level FlightAware
04:52PM 31.8530 -78.4090 199° South 457 526 38,000  Level FlightAware
04:53PM 31.7940 -78.4330 199° South 457 526 38,000  Level FlightAware
04:53PM 31.7330 -78.4580 199° South 457 526 38,000  Level FlightAware
04:54PM 31.6510 -78.4910 199° South 457 526 38,000  Level FlightAware
04:55PM 31.5930 -78.5140 199° South 457 526 38,000  Level FlightAware
04:55PM 31.5320 -78.5390 199° South 457 526 38,000  Level FlightAware
04:56PM 31.4710 -78.5630 199° South 457 526 38,000  Level FlightAware
04:57PM 31.4060 -78.5890 199° South 457 526 38,000  Level FlightAware
04:57PM 31.3490 -78.6130 200° South 457 526 38,000  Level FlightAware
04:58PM 31.2870 -78.6370 198° South 457 526 38,000  Level FlightAware
04:58PM 31.2260 -78.6620 199° South 457 526 38,000  Level FlightAware
04:59PM 31.1630 -78.6870 199° South 457 526 38,000  Level FlightAware
05:00PM 31.0990 -78.7130 199° South 457 526 38,000  Level FlightAware
05:00PM 30.7520 -78.8620 200° South 459 528 38,000  Level FlightAware
05:01PM 30.6910 -78.8860 199° South 459 528 38,000  Level FlightAware
05:02PM 30.6290 -78.9110 199° South 459 528 38,000  Level FlightAware
05:02PM 30.5710 -78.9340 199° South 459 528 38,000  Level FlightAware
05:03PM 30.5130 -78.9570 199° South 459 528 38,000  Level FlightAware
05:03PM 30.4520 -78.9820 199° South 459 528 38,000  Level FlightAware
05:04PM 30.3870 -79.0080 199° South 459 528 38,000  Level FlightAware
05:05PM 30.3260 -79.0320 199° South 459 528 38,000  Level FlightAware
05:05PM 30.2640 -79.0570 199° South 459 528 38,000  Level FlightAware
05:06PM 30.2030 -79.0810 199° South 459 528 38,000  Level FlightAware
05:06PM 30.1410 -79.1060 199° South 459 528 38,000  Level FlightAware
05:07PM 30.0800 -79.1300 199° South 459 528 38,000  Level FlightAware
05:08PM 30.0180 -79.1550 199° South 459 528 38,000  Level FlightAware
05:08PM 29.9570 -79.1790 199° South 459 528 38,000  Level FlightAware
05:09PM 29.8940 -79.2040 199° South 459 528 38,000  Level FlightAware
05:09PM 29.8310 -79.2290 199° South 459 528 38,000  Level FlightAware
05:14PM 29.0530 -79.5400 199° South 38,000  Level FlightAware
05:15PM 28.9940 -79.5620 198° South 454 522 38,000  Level FlightAware
05:16PM 28.9330 -79.5850 198° South 454 522 38,000  Level FlightAware
05:16PM 28.8720 -79.6070 198° South 454 522 38,000  Level FlightAware
05:17PM 28.7590 -79.6500 198° South 456 525 38,000  Level FlightAware
05:17PM 28.6920 -79.6740 197° South 455 524 38,000  Level FlightAware
05:18PM 28.6140 -79.7030 198° South 456 525 38,000  Level FlightAware
05:19PM 28.5020 -79.7450 198° South 459 528 38,000  Level FlightAware
05:19PM 28.4420 -79.7670 198° South 459 528 38,000  Level FlightAware
05:20PM 28.3580 -79.7980 198° South 458 527 38,000  Level FlightAware
05:21PM 28.2850 -79.8250 198° South 458 527 38,000  Level FlightAware
05:21PM 28.2150 -79.8500 197° South 459 528 38,000  Level FlightAware
05:22PM 28.1420 -79.8770 198° South 460 529 38,000  Level FlightAware
05:22PM 28.0740 -79.9020 198° South 460 529 38,000  Level FlightAware
05:23PM 28.0000 -79.9290 198° South 459 528 38,000  Level FlightAware
05:24PM 27.9270 -79.9560 198° South 459 528 38,000  Level FlightAware
05:24PM 27.8550 -79.9820 198° South 458 527 38,000  Level FlightAware
05:25PM 27.7820 -80.0090 198° South 458 527 38,000  Level FlightAware
05:25PM 27.7030 -80.0370 197° South 457 526 38,000  Level FlightAware
05:26PM 27.6290 -80.0640 198° South 457 526 38,000  Level FlightAware
05:27PM 27.5560 -80.0910 198° South 457 526 38,000  Level FlightAware
05:27PM 27.4770 -80.1190 197° South 457 526 38,000  Level FlightAware
05:28PM 27.4120 -80.1430 198° South 457 526 38,000  Level FlightAware
05:28PM 27.3430 -80.1680 198° South 458 527 38,000  Level FlightAware
05:29PM 27.2690 -80.1950 198° South 457 526 38,000  Level FlightAware
05:29PM 27.1980 -80.2200 197° South 457 526 38,000  Level FlightAware
05:30PM 27.1260 -80.2460 198° South 457 526 38,000  Level FlightAware
05:31PM 27.0540 -80.2720 198° South 456 525 38,000  Level FlightAware
05:31PM 26.9700 -80.3020 198° South 456 525 38,000  Level FlightAware
05:32PM 26.9000 -80.3270 198° South 456 525 38,000  Level FlightAware
05:32PM 26.8370 -80.3500 198° South 456 525 38,000  Level FlightAware
05:33PM 26.7630 -80.3760 197° South 456 525 38,000  Level FlightAware
05:34PM 26.6930 -80.4010 198° South 456 525 38,000  Level FlightAware
05:34PM 26.6200 -80.4270 198° South 455 524 38,000  Level FlightAware
05:35PM 26.5490 -80.4520 197° South 455 524 38,000  Level FlightAware
05:36PM 26.4530 -80.4900 200° South 449 517 38,000  Level FlightAware
05:36PM 26.3900 -80.5350 213° Southwest 446 513 38,000  Level FlightAware
05:37PM 26.3320 -80.5850 218° Southwest 451 519 38,000  Level FlightAware
05:37PM 26.2740 -80.6350 218° Southwest 452 520 38,000  Level FlightAware
05:38PM 26.2160 -80.6850 218° Southwest 445 512 38,000  Level FlightAware
05:38PM 26.1580 -80.7340 217° Southwest 445 512 38,000  Level FlightAware
05:39PM 26.1000 -80.7830 217° Southwest 446 513 38,000  Level FlightAware
05:40PM 26.0430 -80.8310 217° Southwest 447 514 38,000  Level FlightAware
05:40PM 25.9840 -80.8810 217° Southwest 448 516 38,000  Level FlightAware
05:41PM 25.9240 -80.9320 217° Southwest 448 516 38,000  Level FlightAware
05:41PM 25.8660 -80.9800 217° Southwest 446 513 38,000  Level FlightAware
05:42PM 25.8070 -81.0300 217° Southwest 444 511 38,000  Level FlightAware
05:43PM 25.7410 -81.0850 217° Southwest 444 511 38,000  Level FlightAware
05:43PM 25.6910 -81.1270 217° Southwest 445 512 38,000  Level FlightAware
05:44PM 25.6310 -81.1780 217° Southwest 445 512 38,000  Level FlightAware
05:44PM 25.5650 -81.2330 217° Southwest 445 512 38,000  Level FlightAware
05:45PM 25.5150 -81.2750 217° Southwest 446 513 38,000 -420 Level FlightAware
05:45PM 25.4580 -81.3220 217° Southwest 447 514 37,600 -900 Descending FlightAware
05:46PM 25.3970 -81.3730 217° Southwest 449 517 37,000 -960 Descending FlightAware
05:47PM 25.3390 -81.4210 217° Southwest 451 519 36,500 -960 Descending FlightAware
05:47PM 25.2790 -81.4710 217° Southwest 450 518 35,900 -1,080 Descending FlightAware
05:48PM 25.2190 -81.5200 216° Southwest 459 528 35,300 -1,080 Descending FlightAware
05:48PM 25.1600 -81.5700 217° Southwest 461 531 34,700 -1,080 Descending FlightAware
05:49PM 25.1010 -81.6190 217° Southwest 448 516 34,100 -960 Descending FlightAware
05:50PM 25.0420 -81.6680 217° Southwest 444 511 33,600 -960 Descending FlightAware
05:50PM 24.9840 -81.7150 216° Southwest 446 513 33,000 -1,080 Descending FlightAware
05:51PM 24.9260 -81.7630 217° Southwest 442 509 32,400 -1,080 Descending FlightAware
05:51PM 24.8700 -81.8090 217° Southwest 442 509 31,800 -1,080 Descending FlightAware
05:52PM 24.8130 -81.8560 217° Southwest 440 506 31,200 -960 Descending FlightAware
05:52PM 24.7600 -81.9000 217° Southwest 430 495 30,700 -1,080 Descending FlightAware
05:53PM 24.6980 -81.9500 216° Southwest 425 489 30,000 -1,080 Descending FlightAware
05:54PM 24.6430 -81.9950 217° Southwest 427 491 29,500 -900 Descending FlightAware
05:54PM 24.5860 -82.0420 217° Southwest 422 486 28,900 -1,020 Descending FlightAware
05:55PM 24.5240 -82.0930 217° Southwest 419 482 28,200 -1,140 Descending FlightAware
05:56PM 24.4650 -82.1410 217° Southwest 409 471 27,500 -1,560 Descending FlightAware
05:56PM 24.4090 -82.1860 216° Southwest 403 464 26,400 -1,740 Descending FlightAware
05:57PM 24.3550 -82.2310 217° Southwest 400 460 25,500 -1,800 Descending FlightAware
05:58PM 24.2750 -82.2960 217° Southwest 388 447 23,700 -1,320 Descending FlightAware
05:59PM 24.2120 -82.3480 217° Southwest 382 440 23,200 -360 Descending FlightAware
05:59PM 24.1690 -82.3830 217° Southwest 382 440 23,200  Level FlightAware
06:00PM 24.1250 -82.4190 217° Southwest 382 440 23,200  Level FlightAware
06:00PM 24.0820 -82.4550 217° Southwest 382 440 23,200  Level FlightAware
06:01PM 24.0390 -82.4900 217° Southwest 382 440 23,200  Level FlightAware
06:02PM 23.9960 -82.5260 217° Southwest 382 440 23,200  Level FlightAware
06:10PM 22.9891 -82.4091 175° South  Level Estimated
06:11PM 22.9891 -82.4091 175° South  Level Estimated
06:12PM 22.9891 -82.4091 175° South  Level Estimated
06:13PM 22.9891 -82.4091 175° South  Level Estimated
06:14PM 22.9891 -82.4091 175° South  Level Estimated
06:15PM 22.9891 -82.4091 175° South  Level Estimated
06:16PM 22.9891 -82.4091 175° South  Level Estimated
06:17PM 22.9891 -82.4091 175° South  Level Estimated
06:18PM 22.9891 -82.4091 175° South  Level Estimated
06:19PM 22.9891 -82.4091 175° South  Level Estimated
06:20PM 22.9891 -82.4091 175° South  Level Estimated
06:21PM 22.9891 -82.4091 175° South  Level Estimated
06:22PM 22.9891 -82.4091 175° South  Level Estimated
06:23PM 22.9891 -82.4091 175° South  Level Estimated
06:24PM 22.9891 -82.4091 175° South  Level Estimated
06:25PM 22.9891 -82.4091 175° South  Level Estimated
06:26PM 22.9891 -82.4091 175° South  Level Estimated
06:27PM 22.9891 -82.4091 175° South  Level Estimated
06:28PM 22.9891 -82.4091 175° South  Level Estimated
06:29PM 22.9891 -82.4091 175° South  Level Estimated
06:30PM 22.9891 -82.4091 175° South  Level Estimated
06:31PM 22.9891 -82.4091 175° South  Level Estimated
06:32PM 22.9891 -82.4091 175° South  Level Estimated